VIR147 EGLL-CYYZ
Flight info
| Callsign | VIR147 |
|---|---|
| Flight time | 6h 57m |
| Altitude | 36000 |
| Route | ULTIB T420 TNT UL28 PENIL M144 BAGSO DCT DOGAL/M085F370 DCT 55N020W 55N030W 55N040W 54N050W DCT NEEKO/N0497F380 N622E TAFFY DCT VILRO DCT SAVEX Q806 TUKIR RAGID6 |
| Aircraft | A35K/H-SDE2E3GHIJ3J4J5LM1ORWXY/LB1D1 |
Departure
| Time | 2026-05-04 19:48 |
|---|---|
| Airport | London Heathrow Airport (EGLL) |
Arrival
| Time | 2026-05-05 02:45 |
|---|---|
| Airport | Toronto Pearson International Airport (CYYZ) |
| Time | Latitude | Longitude | Altitude | Speed | Heading |
|---|---|---|---|---|---|
| 2026-05-04 18:57 | 51.47206 | -0.46259 | 93 ft | 0 kts | 55° |
| 2026-05-04 19:38 | 51.47198 | -0.46275 | 93 ft | 2 kts | 37° |
| 2026-05-04 19:38 | 51.47185 | -0.46291 | 92 ft | 2 kts | 26° |
| 2026-05-04 19:39 | 51.47169 | -0.46300 | 94 ft | 2 kts | 9° |
| 2026-05-04 19:39 | 51.47153 | -0.46301 | 93 ft | 2 kts | 355° |
| 2026-05-04 19:39 | 51.47137 | -0.46297 | 91 ft | 2 kts | 344° |
| 2026-05-04 19:39 | 51.47121 | -0.46289 | 93 ft | 2 kts | 336° |
| 2026-05-04 19:40 | 51.47107 | -0.46277 | 92 ft | 2 kts | 330° |
| 2026-05-04 19:40 | 51.47095 | -0.46266 | 94 ft | 1 kts | 326° |
| 2026-05-04 19:40 | 51.47093 | -0.46263 | 93 ft | 0 kts | 325° |
| 2026-05-04 19:40 | 51.47094 | -0.46265 | 94 ft | 1 kts | 326° |
| 2026-05-04 19:41 | 51.47102 | -0.46273 | 95 ft | 3 kts | 327° |
| 2026-05-04 19:41 | 51.47127 | -0.46297 | 94 ft | 6 kts | 329° |
| 2026-05-04 19:41 | 51.47147 | -0.46315 | 92 ft | 0 kts | 332° |
| 2026-05-04 19:41 | 51.47148 | -0.46316 | 92 ft | 1 kts | 332° |
| 2026-05-04 19:42 | 51.47168 | -0.46339 | 95 ft | 9 kts | 323° |
| 2026-05-04 19:42 | 51.47233 | -0.46431 | 97 ft | 14 kts | 296° |
| 2026-05-04 19:42 | 51.47240 | -0.46585 | 93 ft | 15 kts | 271° |
| 2026-05-04 19:42 | 51.47242 | -0.46771 | 91 ft | 18 kts | 268° |
| 2026-05-04 19:43 | 51.47159 | -0.46866 | 95 ft | 16 kts | 181° |
| 2026-05-04 19:43 | 51.47043 | -0.46867 | 92 ft | 18 kts | 180° |
| 2026-05-04 19:43 | 51.46916 | -0.46867 | 93 ft | 19 kts | 180° |
| 2026-05-04 19:43 | 51.46788 | -0.46865 | 98 ft | 13 kts | 178° |
| 2026-05-04 19:44 | 51.46719 | -0.46863 | 102 ft | 10 kts | 180° |
| 2026-05-04 19:44 | 51.46662 | -0.46925 | 102 ft | 12 kts | 246° |
| 2026-05-04 19:44 | 51.46657 | -0.47091 | 99 ft | 18 kts | 269° |
| 2026-05-04 19:44 | 51.46656 | -0.47315 | 95 ft | 23 kts | 270° |
| 2026-05-04 19:45 | 51.46655 | -0.47580 | 94 ft | 24 kts | 269° |
| 2026-05-04 19:45 | 51.46654 | -0.47854 | 93 ft | 25 kts | 269° |
| 2026-05-04 19:45 | 51.46653 | -0.48093 | 101 ft | 13 kts | 269° |
| 2026-05-04 19:45 | 51.46653 | -0.48238 | 99 ft | 14 kts | 270° |
| 2026-05-04 19:46 | 51.46651 | -0.48400 | 102 ft | 15 kts | 260° |
| 2026-05-04 19:46 | 51.46611 | -0.48463 | 102 ft | 0 kts | 179° |
| 2026-05-04 19:46 | 51.46589 | -0.48464 | 105 ft | 7 kts | 181° |
| 2026-05-04 19:47 | 51.46511 | -0.48460 | 103 ft | 15 kts | 163° |
| 2026-05-04 19:47 | 51.46479 | -0.48326 | 102 ft | 0 kts | 89° |
| 2026-05-04 19:47 | 51.46480 | -0.48276 | 100 ft | 18 kts | 89° |
| 2026-05-04 19:47 | 51.46482 | -0.47694 | 95 ft | 86 kts | 89° |
| 2026-05-04 19:48 | 51.46486 | -0.46416 | 102 ft | 142 kts | 90° |
| 2026-05-04 19:48 | 51.46491 | -0.44590 | 298 ft | 175 kts | 88° |
| 2026-05-04 19:48 | 51.46515 | -0.42600 | 888 ft | 182 kts | 82° |
| 2026-05-04 19:48 | 51.46824 | -0.40614 | 1545 ft | 188 kts | 63° |
| 2026-05-04 19:49 | 51.47676 | -0.38989 | 2081 ft | 196 kts | 37° |
| 2026-05-04 19:49 | 51.48783 | -0.37691 | 2581 ft | 203 kts | 39° |
| 2026-05-04 19:49 | 51.49856 | -0.36091 | 2920 ft | 223 kts | 47° |
| 2026-05-04 19:49 | 51.50962 | -0.34127 | 3342 ft | 240 kts | 50° |
| 2026-05-04 19:50 | 51.51857 | -0.31853 | 3895 ft | 250 kts | 66° |
| 2026-05-04 19:50 | 51.52483 | -0.29204 | 4534 ft | 258 kts | 70° |
| 2026-05-04 19:50 | 51.53097 | -0.26455 | 5145 ft | 265 kts | 66° |
| 2026-05-04 19:50 | 51.54118 | -0.23991 | 5726 ft | 268 kts | 43° |
| 2026-05-04 19:51 | 51.55721 | -0.22508 | 5967 ft | 269 kts | 14° |
| 2026-05-04 19:51 | 51.57574 | -0.22363 | 5997 ft | 269 kts | 351° |
| 2026-05-04 19:51 | 51.59412 | -0.22904 | 6016 ft | 270 kts | 347° |
| 2026-05-04 19:51 | 51.61240 | -0.23593 | 6018 ft | 269 kts | 341° |
| 2026-05-04 19:52 | 51.62944 | -0.24852 | 6042 ft | 268 kts | 329° |
| 2026-05-04 19:52 | 51.64436 | -0.26282 | 6047 ft | 268 kts | 327° |
| 2026-05-04 19:52 | 51.65491 | -0.27322 | 6043 ft | 268 kts | 327° |
| 2026-05-04 19:52 | 51.67084 | -0.28877 | 6096 ft | 269 kts | 327° |
| 2026-05-04 19:53 | 51.68696 | -0.30444 | 6554 ft | 272 kts | 328° |
| 2026-05-04 19:53 | 51.70329 | -0.32031 | 7331 ft | 274 kts | 328° |
| 2026-05-04 19:53 | 51.71960 | -0.33610 | 8182 ft | 274 kts | 327° |
| 2026-05-04 19:53 | 51.73608 | -0.35205 | 8980 ft | 278 kts | 327° |
| 2026-05-04 19:54 | 51.75276 | -0.36820 | 9783 ft | 282 kts | 327° |
| 2026-05-04 19:54 | 51.76975 | -0.38463 | 10440 ft | 291 kts | 327° |
| 2026-05-04 19:54 | 51.78768 | -0.40205 | 10784 ft | 310 kts | 328° |
| 2026-05-04 19:54 | 51.80675 | -0.42057 | 11102 ft | 329 kts | 328° |
| 2026-05-04 19:55 | 51.82693 | -0.44004 | 11496 ft | 345 kts | 328° |
| 2026-05-04 19:55 | 51.84782 | -0.46026 | 12064 ft | 354 kts | 328° |
| 2026-05-04 19:55 | 51.86899 | -0.48081 | 12767 ft | 358 kts | 327° |
| 2026-05-04 19:55 | 51.89056 | -0.50181 | 13440 ft | 364 kts | 328° |
| 2026-05-04 19:56 | 51.91245 | -0.52312 | 14086 ft | 369 kts | 328° |
| 2026-05-04 19:56 | 51.93458 | -0.54469 | 14669 ft | 374 kts | 328° |
| 2026-05-04 19:56 | 51.95707 | -0.56658 | 15254 ft | 379 kts | 327° |
| 2026-05-04 19:56 | 51.97986 | -0.58880 | 15858 ft | 384 kts | 327° |
| 2026-05-04 19:57 | 52.00291 | -0.61135 | 16430 ft | 389 kts | 327° |
| 2026-05-04 19:57 | 52.02623 | -0.63423 | 17053 ft | 393 kts | 328° |
| 2026-05-04 19:57 | 52.04972 | -0.65729 | 17679 ft | 397 kts | 327° |
| 2026-05-04 19:57 | 52.07312 | -0.68027 | 18343 ft | 400 kts | 327° |
| 2026-05-04 19:58 | 52.09706 | -0.70381 | 18929 ft | 404 kts | 327° |
| 2026-05-04 19:58 | 52.12114 | -0.72752 | 19548 ft | 407 kts | 327° |
| 2026-05-04 19:58 | 52.14552 | -0.75150 | 20162 ft | 410 kts | 327° |
| 2026-05-04 19:58 | 52.17008 | -0.77569 | 20760 ft | 414 kts | 326° |
| 2026-05-04 19:59 | 52.19480 | -0.80013 | 21356 ft | 417 kts | 326° |
| 2026-05-04 19:59 | 52.21972 | -0.82482 | 21966 ft | 420 kts | 326° |
| 2026-05-04 19:59 | 52.24480 | -0.84970 | 22543 ft | 424 kts | 326° |
| 2026-05-04 19:59 | 52.27014 | -0.87486 | 23136 ft | 427 kts | 326° |
| 2026-05-04 20:00 | 52.29560 | -0.90015 | 23774 ft | 428 kts | 325° |
| 2026-05-04 20:00 | 52.32112 | -0.92553 | 24387 ft | 429 kts | 325° |
| 2026-05-04 20:00 | 52.34672 | -0.95104 | 24840 ft | 433 kts | 325° |
| 2026-05-04 20:00 | 52.37262 | -0.97691 | 25287 ft | 437 kts | 326° |
| 2026-05-04 20:01 | 52.39866 | -1.00295 | 25728 ft | 441 kts | 326° |
| 2026-05-04 20:01 | 52.42466 | -1.02898 | 26131 ft | 446 kts | 326° |
| 2026-05-04 20:01 | 52.45122 | -1.05558 | 26597 ft | 449 kts | 326° |
| 2026-05-04 20:01 | 52.47795 | -1.08238 | 27059 ft | 452 kts | 326° |
| 2026-05-04 20:02 | 52.50490 | -1.10939 | 27513 ft | 455 kts | 326° |
| 2026-05-04 20:02 | 52.53200 | -1.13660 | 27994 ft | 458 kts | 327° |
| 2026-05-04 20:02 | 52.55929 | -1.16410 | 28443 ft | 461 kts | 327° |
| 2026-05-04 20:02 | 52.58668 | -1.19172 | 28856 ft | 464 kts | 327° |
| 2026-05-04 20:03 | 52.61429 | -1.21962 | 29280 ft | 467 kts | 327° |
| 2026-05-04 20:03 | 52.64207 | -1.24773 | 29665 ft | 470 kts | 327° |
| 2026-05-04 20:03 | 52.67002 | -1.27606 | 30072 ft | 473 kts | 327° |
| 2026-05-04 20:03 | 52.69815 | -1.30460 | 30407 ft | 476 kts | 327° |
| 2026-05-04 20:04 | 52.72643 | -1.33328 | 30752 ft | 478 kts | 327° |
| 2026-05-04 20:04 | 52.75452 | -1.36187 | 31116 ft | 480 kts | 327° |
| 2026-05-04 20:04 | 52.78291 | -1.39087 | 31480 ft | 481 kts | 328° |
| 2026-05-04 20:04 | 52.81143 | -1.42005 | 31820 ft | 482 kts | 328° |
| 2026-05-04 20:05 | 52.84007 | -1.44938 | 32081 ft | 485 kts | 328° |
| 2026-05-04 20:05 | 52.86878 | -1.47882 | 32370 ft | 486 kts | 328° |
| 2026-05-04 20:05 | 52.89756 | -1.50837 | 32776 ft | 485 kts | 328° |
| 2026-05-04 20:05 | 52.92620 | -1.53783 | 33167 ft | 485 kts | 329° |
| 2026-05-04 20:06 | 52.95487 | -1.56734 | 33516 ft | 484 kts | 329° |
| 2026-05-04 20:06 | 52.98347 | -1.59684 | 33907 ft | 483 kts | 329° |
| 2026-05-04 20:06 | 53.01192 | -1.62626 | 34250 ft | 481 kts | 330° |
| 2026-05-04 20:06 | 53.04031 | -1.65566 | 34641 ft | 479 kts | 330° |
| 2026-05-04 20:07 | 53.06853 | -1.68489 | 34891 ft | 479 kts | 329° |
| 2026-05-04 20:07 | 53.09654 | -1.71392 | 35103 ft | 480 kts | 329° |
| 2026-05-04 20:07 | 53.12521 | -1.74375 | 35344 ft | 480 kts | 329° |
| 2026-05-04 20:07 | 53.15319 | -1.77295 | 35574 ft | 480 kts | 329° |
| 2026-05-04 20:08 | 53.18148 | -1.80254 | 35795 ft | 480 kts | 329° |
| 2026-05-04 20:08 | 53.20867 | -1.83507 | 35988 ft | 482 kts | 321° |
| 2026-05-04 20:08 | 53.23305 | -1.87380 | 36055 ft | 487 kts | 312° |
| 2026-05-04 20:09 | 53.27051 | -1.96847 | 36063 ft | 490 kts | 298° |
| 2026-05-04 20:09 | 53.30120 | -2.06999 | 36071 ft | 489 kts | 297° |
| 2026-05-04 20:10 | 53.33099 | -2.17246 | 36076 ft | 489 kts | 297° |
| 2026-05-04 20:10 | 53.35888 | -2.27561 | 36078 ft | 490 kts | 290° |
| 2026-05-04 20:11 | 53.38069 | -2.38410 | 36074 ft | 491 kts | 289° |
| 2026-05-04 20:11 | 53.40139 | -2.49313 | 36073 ft | 491 kts | 288° |
| 2026-05-04 20:12 | 53.42189 | -2.60252 | 36067 ft | 491 kts | 288° |
| 2026-05-04 20:12 | 53.44230 | -2.71165 | 36061 ft | 491 kts | 288° |
| 2026-05-04 20:13 | 53.46272 | -2.82098 | 36062 ft | 491 kts | 288° |
| 2026-05-04 20:13 | 53.48308 | -2.93050 | 36069 ft | 491 kts | 289° |
| 2026-05-04 20:14 | 53.50337 | -3.04021 | 36070 ft | 491 kts | 288° |
| 2026-05-04 20:14 | 53.52345 | -3.14986 | 36070 ft | 491 kts | 288° |
| 2026-05-04 20:15 | 53.54333 | -3.25899 | 36084 ft | 491 kts | 288° |
| 2026-05-04 20:15 | 53.56327 | -3.36898 | 36071 ft | 491 kts | 288° |
| 2026-05-04 20:16 | 53.58310 | -3.47892 | 36072 ft | 491 kts | 288° |
| 2026-05-04 20:16 | 53.60285 | -3.58895 | 36071 ft | 491 kts | 288° |
| 2026-05-04 20:17 | 53.61706 | -3.70129 | 36077 ft | 492 kts | 277° |
| 2026-05-04 20:17 | 53.62294 | -3.81634 | 36074 ft | 492 kts | 275° |
| 2026-05-04 20:18 | 53.62745 | -3.93146 | 36082 ft | 493 kts | 274° |
| 2026-05-04 20:18 | 53.63177 | -4.04595 | 36076 ft | 493 kts | 275° |
| 2026-05-04 20:19 | 53.63621 | -4.16119 | 36076 ft | 493 kts | 275° |
| 2026-05-04 20:19 | 53.64056 | -4.27630 | 36080 ft | 492 kts | 274° |
| 2026-05-04 20:20 | 53.64486 | -4.39143 | 36083 ft | 492 kts | 274° |
| 2026-05-04 20:20 | 53.64900 | -4.50652 | 36090 ft | 492 kts | 274° |
| 2026-05-04 20:21 | 53.65299 | -4.62160 | 36075 ft | 491 kts | 274° |
| 2026-05-04 20:21 | 53.65876 | -4.79352 | 36086 ft | 488 kts | 274° |
| 2026-05-04 20:22 | 53.66249 | -4.90713 | 36097 ft | 488 kts | 274° |
| 2026-05-04 20:22 | 53.66617 | -5.02135 | 36085 ft | 488 kts | 274° |
| 2026-05-04 20:23 | 53.66973 | -5.13563 | 36099 ft | 488 kts | 274° |
| 2026-05-04 20:23 | 53.67319 | -5.24986 | 36095 ft | 487 kts | 274° |
| 2026-05-04 20:24 | 53.67640 | -5.36403 | 36092 ft | 486 kts | 274° |
| 2026-05-04 20:24 | 53.67948 | -5.47781 | 36097 ft | 486 kts | 274° |
| 2026-05-04 20:25 | 53.68454 | -5.59139 | 36100 ft | 485 kts | 278° |
| 2026-05-04 20:25 | 53.69366 | -5.70406 | 36103 ft | 485 kts | 279° |
| 2026-05-04 20:26 | 53.70276 | -5.81686 | 36088 ft | 485 kts | 278° |
| 2026-05-04 20:26 | 53.71107 | -5.92985 | 36097 ft | 485 kts | 278° |
| 2026-05-04 20:27 | 53.71889 | -6.04235 | 36096 ft | 485 kts | 277° |
| 2026-05-04 20:27 | 53.72661 | -6.15555 | 36092 ft | 485 kts | 277° |
| 2026-05-04 20:28 | 53.73424 | -6.26872 | 36079 ft | 485 kts | 277° |
| 2026-05-04 20:28 | 53.74179 | -6.38186 | 36094 ft | 484 kts | 277° |
| 2026-05-04 20:29 | 53.74922 | -6.49497 | 36090 ft | 484 kts | 277° |
| 2026-05-04 20:29 | 53.75654 | -6.60795 | 36094 ft | 484 kts | 277° |
| 2026-05-04 20:30 | 53.76375 | -6.72110 | 36091 ft | 484 kts | 277° |
| 2026-05-04 20:30 | 53.77086 | -6.83426 | 36080 ft | 484 kts | 277° |
| 2026-05-04 20:31 | 53.77782 | -6.94674 | 36092 ft | 483 kts | 277° |
| 2026-05-04 20:31 | 53.78471 | -7.05976 | 36096 ft | 483 kts | 277° |
| 2026-05-04 20:32 | 53.79148 | -7.17260 | 36094 ft | 480 kts | 276° |
| 2026-05-04 20:32 | 53.79809 | -7.28468 | 36100 ft | 478 kts | 276° |
| 2026-05-04 20:33 | 53.80459 | -7.39665 | 36100 ft | 477 kts | 276° |
| 2026-05-04 20:33 | 53.81093 | -7.50769 | 36096 ft | 476 kts | 276° |
| 2026-05-04 20:34 | 53.81720 | -7.61935 | 36106 ft | 476 kts | 276° |
| 2026-05-04 20:34 | 53.82337 | -7.73112 | 36105 ft | 476 kts | 276° |
| 2026-05-04 20:35 | 53.82944 | -7.84293 | 36112 ft | 476 kts | 276° |
| 2026-05-04 20:35 | 53.83539 | -7.95457 | 36106 ft | 476 kts | 276° |
| 2026-05-04 20:36 | 53.84123 | -8.06608 | 36116 ft | 475 kts | 276° |
| 2026-05-04 20:36 | 53.84697 | -8.17762 | 36112 ft | 475 kts | 276° |
| 2026-05-04 20:37 | 53.85262 | -8.28951 | 36115 ft | 475 kts | 276° |
| 2026-05-04 20:37 | 53.85812 | -8.40050 | 36115 ft | 475 kts | 276° |
| 2026-05-04 20:38 | 53.86355 | -8.51207 | 36121 ft | 475 kts | 275° |
| 2026-05-04 20:38 | 53.86802 | -8.60561 | 36118 ft | 475 kts | 275° |
| 2026-05-04 20:39 | 53.87321 | -8.71635 | 36120 ft | 475 kts | 275° |
| 2026-05-04 20:39 | 53.87833 | -8.82784 | 36127 ft | 475 kts | 275° |
| 2026-05-04 20:40 | 53.88336 | -8.93948 | 36119 ft | 475 kts | 275° |
| 2026-05-04 20:40 | 53.88828 | -9.05110 | 36131 ft | 473 kts | 275° |
| 2026-05-04 20:41 | 53.89308 | -9.16241 | 36134 ft | 473 kts | 275° |
| 2026-05-04 20:41 | 53.89774 | -9.27271 | 36138 ft | 471 kts | 275° |
| 2026-05-04 20:42 | 53.90231 | -9.38348 | 36138 ft | 470 kts | 275° |
| 2026-05-04 20:42 | 53.90678 | -9.49406 | 36143 ft | 470 kts | 274° |
| 2026-05-04 20:43 | 53.91113 | -9.60445 | 36142 ft | 469 kts | 274° |
| 2026-05-04 20:43 | 53.91538 | -9.71480 | 36149 ft | 469 kts | 274° |
| 2026-05-04 20:44 | 53.91953 | -9.82533 | 36149 ft | 469 kts | 274° |
| 2026-05-04 20:44 | 53.92356 | -9.93507 | 36149 ft | 469 kts | 274° |
| 2026-05-04 20:45 | 53.92751 | -10.04549 | 36144 ft | 469 kts | 274° |
| 2026-05-04 20:45 | 53.93135 | -10.15582 | 36151 ft | 468 kts | 274° |
| 2026-05-04 20:46 | 53.93509 | -10.26620 | 36150 ft | 468 kts | 274° |
| 2026-05-04 20:46 | 53.93872 | -10.37647 | 36155 ft | 468 kts | 274° |
| 2026-05-04 20:47 | 53.94224 | -10.48598 | 36156 ft | 468 kts | 274° |
| 2026-05-04 20:47 | 53.94565 | -10.59570 | 36156 ft | 468 kts | 273° |
| 2026-05-04 20:48 | 53.94899 | -10.70605 | 36154 ft | 468 kts | 273° |
| 2026-05-04 20:48 | 53.95223 | -10.81654 | 36153 ft | 468 kts | 273° |
| 2026-05-04 20:49 | 53.95536 | -10.92700 | 36154 ft | 468 kts | 273° |
| 2026-05-04 20:49 | 53.95839 | -11.03740 | 36163 ft | 468 kts | 273° |
| 2026-05-04 20:50 | 53.96132 | -11.14782 | 36164 ft | 468 kts | 273° |
| 2026-05-04 20:50 | 53.96414 | -11.25768 | 36163 ft | 468 kts | 273° |
| 2026-05-04 20:51 | 53.96687 | -11.36813 | 36165 ft | 467 kts | 272° |
| 2026-05-04 20:51 | 53.96949 | -11.47822 | 36165 ft | 466 kts | 272° |
| 2026-05-04 20:52 | 53.97200 | -11.58827 | 36161 ft | 466 kts | 272° |
| 2026-05-04 20:52 | 53.97440 | -11.69769 | 36163 ft | 466 kts | 272° |
| 2026-05-04 20:53 | 53.97671 | -11.80757 | 36168 ft | 466 kts | 272° |
| 2026-05-04 20:53 | 53.97893 | -11.91774 | 36170 ft | 466 kts | 272° |
| 2026-05-04 20:54 | 53.98104 | -12.02767 | 36170 ft | 466 kts | 272° |
| 2026-05-04 20:54 | 53.98306 | -12.13781 | 36176 ft | 466 kts | 272° |
| 2026-05-04 20:55 | 53.98497 | -12.24782 | 36176 ft | 466 kts | 272° |
| 2026-05-04 20:55 | 53.98679 | -12.35806 | 36177 ft | 466 kts | 272° |
| 2026-05-04 20:56 | 53.98850 | -12.46820 | 36176 ft | 466 kts | 272° |
| 2026-05-04 20:56 | 53.99011 | -12.57826 | 36180 ft | 466 kts | 271° |
| 2026-05-04 20:57 | 53.99161 | -12.68782 | 36178 ft | 466 kts | 271° |
| 2026-05-04 20:57 | 53.99302 | -12.79807 | 36180 ft | 467 kts | 271° |
| 2026-05-04 20:58 | 53.99433 | -12.90841 | 36181 ft | 467 kts | 271° |
| 2026-05-04 20:58 | 53.99554 | -13.01869 | 36187 ft | 467 kts | 271° |
| 2026-05-04 20:59 | 53.99665 | -13.12900 | 36186 ft | 467 kts | 271° |
| 2026-05-04 20:59 | 53.99766 | -13.23946 | 36187 ft | 467 kts | 271° |
| 2026-05-04 21:00 | 53.99856 | -13.34982 | 36187 ft | 467 kts | 271° |
| 2026-05-04 21:00 | 53.99937 | -13.46026 | 36201 ft | 467 kts | 271° |
| 2026-05-04 21:01 | 54.00007 | -13.57042 | 36195 ft | 466 kts | 271° |
| 2026-05-04 21:01 | 54.00068 | -13.67997 | 36200 ft | 466 kts | 271° |
| 2026-05-04 21:02 | 54.00118 | -13.79016 | 36199 ft | 466 kts | 271° |
| 2026-05-04 21:02 | 54.00157 | -13.90039 | 36204 ft | 466 kts | 271° |
| 2026-05-04 21:03 | 54.00173 | -13.95542 | 36384 ft | 464 kts | 271° |
| 2026-05-04 21:03 | 54.00187 | -14.01016 | 36734 ft | 462 kts | 271° |
| 2026-05-04 21:03 | 54.00198 | -14.06468 | 37014 ft | 461 kts | 271° |
| 2026-05-04 21:03 | 54.00207 | -14.11914 | 37184 ft | 462 kts | 271° |
| 2026-05-04 21:04 | 54.00218 | -14.22920 | 37206 ft | 467 kts | 271° |
| 2026-05-04 21:04 | 54.00218 | -14.33954 | 37208 ft | 466 kts | 271° |
| 2026-05-04 21:05 | 54.00208 | -14.44920 | 37208 ft | 466 kts | 271° |
| 2026-05-04 21:05 | 54.00188 | -14.55945 | 37212 ft | 466 kts | 271° |
| 2026-05-04 21:06 | 54.00158 | -14.66956 | 37213 ft | 466 kts | 271° |
| 2026-05-04 21:06 | 54.00118 | -14.77985 | 37217 ft | 466 kts | 271° |
| 2026-05-04 21:07 | 54.00068 | -14.89008 | 37208 ft | 466 kts | 271° |
| 2026-05-04 21:07 | 54.00452 | -14.99975 | 37218 ft | 464 kts | 282° |
| 2026-05-04 21:08 | 54.02320 | -15.10438 | 37219 ft | 463 kts | 290° |
| 2026-05-04 21:08 | 54.04589 | -15.20636 | 37224 ft | 463 kts | 291° |
| 2026-05-04 21:09 | 54.06915 | -15.30875 | 37224 ft | 463 kts | 291° |
| 2026-05-04 21:09 | 54.09216 | -15.41134 | 37228 ft | 463 kts | 291° |
| 2026-05-04 21:10 | 54.11488 | -15.51399 | 37223 ft | 463 kts | 291° |
| 2026-05-04 21:10 | 54.13750 | -15.61689 | 37226 ft | 463 kts | 291° |
| 2026-05-04 21:11 | 54.16005 | -15.72002 | 37233 ft | 464 kts | 291° |
| 2026-05-04 21:11 | 54.18239 | -15.82262 | 37233 ft | 464 kts | 291° |
| 2026-05-04 21:12 | 54.20475 | -15.92583 | 37236 ft | 464 kts | 291° |
| 2026-05-04 21:12 | 54.22703 | -16.02917 | 37238 ft | 463 kts | 291° |
| 2026-05-04 21:13 | 54.24926 | -16.13283 | 37240 ft | 463 kts | 291° |
| 2026-05-04 21:13 | 54.27139 | -16.23652 | 37237 ft | 464 kts | 290° |
| 2026-05-04 21:14 | 54.29345 | -16.34043 | 37238 ft | 465 kts | 290° |
| 2026-05-04 21:14 | 54.31544 | -16.44454 | 37238 ft | 465 kts | 290° |
| 2026-05-04 21:15 | 54.33734 | -16.54873 | 37241 ft | 465 kts | 290° |
| 2026-05-04 21:15 | 54.35899 | -16.65231 | 37244 ft | 465 kts | 290° |
| 2026-05-04 21:16 | 54.38072 | -16.75678 | 37245 ft | 464 kts | 290° |
| 2026-05-04 21:16 | 54.40233 | -16.86126 | 37245 ft | 464 kts | 290° |
| 2026-05-04 21:17 | 54.42385 | -16.96582 | 37247 ft | 464 kts | 290° |
| 2026-05-04 21:17 | 54.44527 | -17.07047 | 37247 ft | 464 kts | 290° |
| 2026-05-04 21:18 | 54.46663 | -17.17536 | 37250 ft | 464 kts | 290° |
| 2026-05-04 21:18 | 54.48775 | -17.27961 | 37250 ft | 465 kts | 289° |
| 2026-05-04 21:19 | 54.50894 | -17.38478 | 37251 ft | 465 kts | 289° |
| 2026-05-04 21:19 | 54.53005 | -17.49005 | 37257 ft | 465 kts | 289° |
| 2026-05-04 21:20 | 54.55104 | -17.59537 | 37255 ft | 465 kts | 289° |
| 2026-05-04 21:20 | 54.57194 | -17.70076 | 37260 ft | 465 kts | 289° |
| 2026-05-04 21:21 | 54.59276 | -17.80635 | 37262 ft | 465 kts | 289° |
| 2026-05-04 21:21 | 54.61350 | -17.91209 | 37263 ft | 465 kts | 289° |
| 2026-05-04 21:22 | 54.63414 | -18.01790 | 37262 ft | 465 kts | 289° |
| 2026-05-04 21:22 | 54.65468 | -18.12380 | 37263 ft | 465 kts | 289° |
| 2026-05-04 21:23 | 54.67496 | -18.22893 | 37269 ft | 464 kts | 289° |
| 2026-05-04 21:23 | 54.69528 | -18.33483 | 37267 ft | 464 kts | 289° |
| 2026-05-04 21:24 | 54.71554 | -18.44103 | 37265 ft | 464 kts | 289° |
| 2026-05-04 21:24 | 54.73569 | -18.54722 | 37270 ft | 464 kts | 288° |
| 2026-05-04 21:25 | 54.75563 | -18.65292 | 37271 ft | 464 kts | 288° |
| 2026-05-04 21:25 | 54.77556 | -18.75913 | 37278 ft | 464 kts | 288° |
| 2026-05-04 21:26 | 54.79539 | -18.86548 | 37282 ft | 463 kts | 288° |
| 2026-05-04 21:26 | 54.81511 | -18.97178 | 37277 ft | 463 kts | 288° |
| 2026-05-04 21:27 | 54.83474 | -19.07815 | 37279 ft | 463 kts | 288° |
| 2026-05-04 21:27 | 54.85429 | -19.18474 | 37278 ft | 463 kts | 288° |
| 2026-05-04 21:28 | 54.87044 | -19.27327 | 37281 ft | 463 kts | 288° |
| 2026-05-04 21:28 | 54.88980 | -19.37995 | 37280 ft | 463 kts | 288° |
| 2026-05-04 21:29 | 54.90906 | -19.48672 | 37279 ft | 463 kts | 288° |
| 2026-05-04 21:29 | 54.92809 | -19.59281 | 37278 ft | 462 kts | 288° |
| 2026-05-04 21:30 | 54.94715 | -19.69966 | 37276 ft | 462 kts | 288° |
| 2026-05-04 21:30 | 54.96613 | -19.80673 | 37289 ft | 462 kts | 287° |
| 2026-05-04 21:31 | 54.99411 | -19.96759 | 37286 ft | 462 kts | 284° |
| 2026-05-04 21:32 | 55.00332 | -20.07835 | 37290 ft | 463 kts | 276° |
| 2026-05-04 21:32 | 55.00819 | -20.19043 | 37298 ft | 464 kts | 275° |
| 2026-05-04 21:33 | 55.01233 | -20.30267 | 37303 ft | 464 kts | 275° |
| 2026-05-04 21:33 | 55.01642 | -20.41414 | 37288 ft | 464 kts | 275° |
| 2026-05-04 21:34 | 55.02055 | -20.52638 | 37287 ft | 464 kts | 275° |
| 2026-05-04 21:34 | 55.02463 | -20.63863 | 37293 ft | 464 kts | 275° |
| 2026-05-04 21:35 | 55.02861 | -20.75081 | 37296 ft | 464 kts | 274° |
| 2026-05-04 21:35 | 55.03248 | -20.86321 | 37303 ft | 464 kts | 274° |
| 2026-05-04 21:36 | 55.03625 | -20.97574 | 37303 ft | 464 kts | 274° |
| 2026-05-04 21:36 | 55.03989 | -21.08734 | 37309 ft | 464 kts | 274° |
| 2026-05-04 21:37 | 55.04345 | -21.19975 | 37306 ft | 464 kts | 274° |
| 2026-05-04 21:37 | 55.04690 | -21.31217 | 37312 ft | 465 kts | 274° |
| 2026-05-04 21:38 | 55.05026 | -21.42476 | 37298 ft | 465 kts | 274° |
| 2026-05-04 21:38 | 55.05351 | -21.53749 | 37306 ft | 465 kts | 274° |
| 2026-05-04 21:39 | 55.05666 | -21.65013 | 37303 ft | 465 kts | 274° |
| 2026-05-04 21:39 | 55.05971 | -21.76293 | 37317 ft | 465 kts | 273° |
| 2026-05-04 21:40 | 55.06263 | -21.87486 | 37317 ft | 465 kts | 273° |
| 2026-05-04 21:40 | 55.06547 | -21.98757 | 37322 ft | 465 kts | 273° |
| 2026-05-04 21:41 | 55.06820 | -22.10050 | 37321 ft | 465 kts | 273° |
| 2026-05-04 21:41 | 55.07083 | -22.21333 | 37331 ft | 466 kts | 273° |
| 2026-05-04 21:42 | 55.07336 | -22.32624 | 37315 ft | 466 kts | 273° |
| 2026-05-04 21:42 | 55.07578 | -22.43910 | 37324 ft | 466 kts | 273° |
| 2026-05-04 21:43 | 55.07811 | -22.55206 | 37312 ft | 466 kts | 272° |
| 2026-05-04 21:43 | 55.08032 | -22.66505 | 37312 ft | 466 kts | 272° |
| 2026-05-04 21:44 | 55.08243 | -22.77811 | 37324 ft | 466 kts | 272° |
| 2026-05-04 21:44 | 55.08444 | -22.89125 | 37325 ft | 466 kts | 272° |
| 2026-05-04 21:45 | 55.08634 | -23.00448 | 37331 ft | 466 kts | 272° |
| 2026-05-04 21:45 | 55.08814 | -23.11765 | 37334 ft | 466 kts | 272° |
| 2026-05-04 21:46 | 55.08983 | -23.23086 | 37327 ft | 466 kts | 272° |
| 2026-05-04 21:46 | 55.09142 | -23.34390 | 37333 ft | 466 kts | 272° |
| 2026-05-04 21:47 | 55.09289 | -23.45652 | 37345 ft | 466 kts | 272° |
| 2026-05-04 21:47 | 55.09427 | -23.56961 | 37333 ft | 466 kts | 272° |
| 2026-05-04 21:48 | 55.09555 | -23.68286 | 37324 ft | 466 kts | 272° |
| 2026-05-04 21:48 | 55.09672 | -23.79608 | 37327 ft | 467 kts | 271° |
| 2026-05-04 21:49 | 55.09779 | -23.90955 | 37345 ft | 467 kts | 271° |
| 2026-05-04 21:49 | 55.09874 | -24.02300 | 37339 ft | 467 kts | 271° |
| 2026-05-04 21:50 | 55.09960 | -24.13623 | 37331 ft | 467 kts | 271° |
| 2026-05-04 21:50 | 55.10034 | -24.24892 | 37343 ft | 467 kts | 271° |
| 2026-05-04 21:51 | 55.10099 | -24.36225 | 37338 ft | 467 kts | 271° |
| 2026-05-04 21:51 | 55.10153 | -24.47575 | 37353 ft | 467 kts | 271° |
| 2026-05-04 21:52 | 55.10196 | -24.58920 | 37346 ft | 467 kts | 271° |
| 2026-05-04 21:52 | 55.10229 | -24.70276 | 37349 ft | 467 kts | 271° |
| 2026-05-04 21:53 | 55.10251 | -24.81623 | 37353 ft | 467 kts | 271° |
| 2026-05-04 21:53 | 55.10263 | -24.92992 | 37357 ft | 469 kts | 271° |
| 2026-05-04 21:54 | 55.10265 | -25.04323 | 37349 ft | 469 kts | 271° |
| 2026-05-04 21:54 | 55.10255 | -25.15724 | 37356 ft | 469 kts | 270° |
| 2026-05-04 21:55 | 55.10235 | -25.27117 | 37357 ft | 469 kts | 270° |
| 2026-05-04 21:55 | 55.10205 | -25.38506 | 37352 ft | 469 kts | 270° |
| 2026-05-04 21:56 | 55.10163 | -25.49928 | 37350 ft | 469 kts | 270° |
| 2026-05-04 21:56 | 55.10112 | -25.61261 | 37367 ft | 470 kts | 270° |
| 2026-05-04 21:57 | 55.10049 | -25.72666 | 37361 ft | 470 kts | 270° |
| 2026-05-04 21:57 | 55.09976 | -25.84078 | 37366 ft | 470 kts | 270° |
| 2026-05-04 21:58 | 55.09892 | -25.95493 | 37366 ft | 470 kts | 270° |
| 2026-05-04 21:58 | 55.09797 | -26.06912 | 37367 ft | 470 kts | 270° |
| 2026-05-04 21:59 | 55.09691 | -26.18354 | 37373 ft | 472 kts | 270° |
| 2026-05-04 21:59 | 55.09575 | -26.29831 | 37370 ft | 473 kts | 270° |
| 2026-05-04 22:00 | 55.09448 | -26.41251 | 37364 ft | 473 kts | 270° |
| 2026-05-04 22:00 | 55.09310 | -26.52728 | 37371 ft | 473 kts | 270° |
| 2026-05-04 22:01 | 55.09160 | -26.64215 | 37361 ft | 473 kts | 269° |
| 2026-05-04 22:01 | 55.09000 | -26.75705 | 37379 ft | 473 kts | 269° |
| 2026-05-04 22:02 | 55.08829 | -26.87205 | 37373 ft | 474 kts | 269° |
| 2026-05-04 22:02 | 55.08648 | -26.98706 | 37381 ft | 474 kts | 269° |
| 2026-05-04 22:03 | 55.08455 | -27.10206 | 37383 ft | 474 kts | 269° |
| 2026-05-04 22:03 | 55.08251 | -27.21713 | 37380 ft | 474 kts | 269° |
| 2026-05-04 22:04 | 55.08036 | -27.33214 | 37380 ft | 474 kts | 269° |
| 2026-05-04 22:04 | 55.07813 | -27.44639 | 37382 ft | 475 kts | 269° |
| 2026-05-04 22:05 | 55.07576 | -27.56185 | 37391 ft | 475 kts | 269° |
| 2026-05-04 22:05 | 55.07328 | -27.67735 | 37386 ft | 476 kts | 269° |
| 2026-05-04 22:06 | 55.07069 | -27.79262 | 37377 ft | 476 kts | 269° |
| 2026-05-04 22:06 | 55.06801 | -27.90727 | 37376 ft | 475 kts | 269° |
| 2026-05-04 22:07 | 55.06520 | -28.02254 | 37386 ft | 476 kts | 269° |
| 2026-05-04 22:07 | 55.06229 | -28.13797 | 37387 ft | 476 kts | 269° |
| 2026-05-04 22:08 | 55.05927 | -28.25314 | 37390 ft | 476 kts | 269° |
| 2026-05-04 22:08 | 55.05614 | -28.36836 | 37390 ft | 476 kts | 269° |
| 2026-05-04 22:09 | 55.05290 | -28.48379 | 37390 ft | 476 kts | 269° |
| 2026-05-04 22:09 | 55.04954 | -28.59903 | 37389 ft | 475 kts | 269° |
| 2026-05-04 22:10 | 55.04609 | -28.71397 | 37394 ft | 475 kts | 269° |
| 2026-05-04 22:10 | 55.04252 | -28.82928 | 37393 ft | 476 kts | 269° |
| 2026-05-04 22:11 | 55.03884 | -28.94464 | 37391 ft | 476 kts | 269° |
| 2026-05-04 22:11 | 55.03507 | -29.05930 | 37392 ft | 476 kts | 269° |
| 2026-05-04 22:12 | 55.03118 | -29.17458 | 37390 ft | 476 kts | 268° |
| 2026-05-04 22:12 | 55.02717 | -29.28997 | 37393 ft | 476 kts | 268° |
| 2026-05-04 22:13 | 55.02305 | -29.40522 | 37397 ft | 476 kts | 268° |
| 2026-05-04 22:13 | 55.01882 | -29.52056 | 37396 ft | 476 kts | 268° |
| 2026-05-04 22:14 | 55.01449 | -29.63574 | 37393 ft | 476 kts | 268° |
| 2026-05-04 22:14 | 55.01007 | -29.75021 | 37394 ft | 476 kts | 268° |
| 2026-05-04 22:15 | 55.00552 | -29.86527 | 37398 ft | 475 kts | 268° |
| 2026-05-04 22:15 | 55.00170 | -29.96057 | 37400 ft | 475 kts | 268° |
| 2026-05-04 22:16 | 55.00309 | -30.07512 | 37400 ft | 472 kts | 275° |
| 2026-05-04 22:16 | 55.00741 | -30.18945 | 37398 ft | 472 kts | 276° |
| 2026-05-04 22:17 | 55.01204 | -30.30355 | 37400 ft | 472 kts | 276° |
| 2026-05-04 22:17 | 55.01651 | -30.41771 | 37414 ft | 471 kts | 276° |
| 2026-05-04 22:18 | 55.02077 | -30.53161 | 37414 ft | 471 kts | 276° |
| 2026-05-04 22:18 | 55.02489 | -30.64556 | 37400 ft | 471 kts | 276° |
| 2026-05-04 22:19 | 55.02891 | -30.75948 | 37398 ft | 471 kts | 276° |
| 2026-05-04 22:19 | 55.03283 | -30.87363 | 37401 ft | 471 kts | 276° |
| 2026-05-04 22:20 | 55.03661 | -30.98690 | 37381 ft | 471 kts | 276° |
| 2026-05-04 22:20 | 55.04032 | -31.10111 | 37407 ft | 471 kts | 276° |
| 2026-05-04 22:21 | 55.04392 | -31.21511 | 37404 ft | 471 kts | 276° |
| 2026-05-04 22:21 | 55.04741 | -31.32918 | 37396 ft | 471 kts | 275° |
| 2026-05-04 22:22 | 55.05080 | -31.44336 | 37397 ft | 471 kts | 275° |
| 2026-05-04 22:22 | 55.05405 | -31.55673 | 37400 ft | 471 kts | 275° |
| 2026-05-04 22:23 | 55.05722 | -31.67077 | 37384 ft | 470 kts | 275° |
| 2026-05-04 22:23 | 55.06028 | -31.78477 | 37398 ft | 470 kts | 275° |
| 2026-05-04 22:24 | 55.06324 | -31.89881 | 37394 ft | 470 kts | 275° |
| 2026-05-04 22:24 | 55.06607 | -32.01211 | 37398 ft | 470 kts | 275° |
| 2026-05-04 22:25 | 55.06881 | -32.12597 | 37396 ft | 470 kts | 275° |
| 2026-05-04 22:25 | 55.07144 | -32.23997 | 37396 ft | 470 kts | 275° |
| 2026-05-04 22:26 | 55.07397 | -32.35399 | 37386 ft | 470 kts | 275° |
| 2026-05-04 22:26 | 55.07638 | -32.46793 | 37393 ft | 469 kts | 275° |
| 2026-05-04 22:27 | 55.07870 | -32.58186 | 37393 ft | 469 kts | 275° |
| 2026-05-04 22:27 | 55.08089 | -32.69521 | 37390 ft | 469 kts | 275° |
| 2026-05-04 22:28 | 55.08299 | -32.80904 | 37390 ft | 469 kts | 275° |
| 2026-05-04 22:28 | 55.08498 | -32.92297 | 37385 ft | 469 kts | 275° |
| 2026-05-04 22:29 | 55.08686 | -33.03689 | 37382 ft | 469 kts | 275° |
| 2026-05-04 22:29 | 55.08864 | -33.15072 | 37384 ft | 469 kts | 275° |
| 2026-05-04 22:30 | 55.09032 | -33.26457 | 37384 ft | 469 kts | 275° |
| 2026-05-04 22:30 | 55.09181 | -33.37300 | 37384 ft | 469 kts | 275° |
| 2026-05-04 22:31 | 55.09327 | -33.48628 | 37381 ft | 469 kts | 274° |
| 2026-05-04 22:31 | 55.09463 | -33.60023 | 37379 ft | 469 kts | 274° |
| 2026-05-04 22:32 | 55.09587 | -33.71402 | 37371 ft | 468 kts | 275° |
| 2026-05-04 22:32 | 55.09701 | -33.82766 | 37375 ft | 468 kts | 275° |
| 2026-05-04 22:33 | 55.09805 | -33.94060 | 37372 ft | 468 kts | 275° |
| 2026-05-04 22:33 | 55.09898 | -34.05437 | 37372 ft | 468 kts | 274° |
| 2026-05-04 22:34 | 55.09981 | -34.16817 | 37373 ft | 468 kts | 274° |
| 2026-05-04 22:34 | 55.10053 | -34.28173 | 37370 ft | 468 kts | 274° |
| 2026-05-04 22:35 | 55.10114 | -34.39533 | 37371 ft | 467 kts | 275° |
| 2026-05-04 22:35 | 55.10164 | -34.50784 | 37373 ft | 465 kts | 274° |
| 2026-05-04 22:36 | 55.10204 | -34.62062 | 37374 ft | 465 kts | 274° |
| 2026-05-04 22:36 | 55.10235 | -34.73360 | 37357 ft | 465 kts | 274° |
| 2026-05-04 22:37 | 55.10254 | -34.84661 | 37359 ft | 465 kts | 274° |
| 2026-05-04 22:37 | 55.10263 | -34.95949 | 37357 ft | 465 kts | 274° |
| 2026-05-04 22:38 | 55.10260 | -35.07215 | 37358 ft | 461 kts | 275° |
| 2026-05-04 22:38 | 55.10246 | -35.18369 | 37357 ft | 458 kts | 275° |
| 2026-05-04 22:39 | 55.10226 | -35.29486 | 37357 ft | 458 kts | 274° |
| 2026-05-04 22:39 | 55.10196 | -35.40533 | 37357 ft | 458 kts | 274° |
| 2026-05-04 22:40 | 55.10154 | -35.51649 | 37355 ft | 458 kts | 274° |
| 2026-05-04 22:40 | 55.10102 | -35.62759 | 37349 ft | 458 kts | 274° |
| 2026-05-04 22:41 | 55.10039 | -35.73877 | 37348 ft | 457 kts | 274° |
| 2026-05-04 22:41 | 55.09967 | -35.84953 | 37347 ft | 456 kts | 274° |
| 2026-05-04 22:42 | 55.09885 | -35.96034 | 37344 ft | 456 kts | 274° |
| 2026-05-04 22:42 | 55.09794 | -36.07030 | 37341 ft | 456 kts | 274° |
| 2026-05-04 22:43 | 55.09692 | -36.18111 | 37341 ft | 456 kts | 274° |
| 2026-05-04 22:43 | 55.09580 | -36.29177 | 37335 ft | 456 kts | 274° |
| 2026-05-04 22:44 | 55.09458 | -36.40231 | 37334 ft | 455 kts | 274° |
| 2026-05-04 22:44 | 55.09325 | -36.51258 | 37333 ft | 454 kts | 274° |
| 2026-05-04 22:45 | 55.09184 | -36.62294 | 37330 ft | 454 kts | 274° |
| 2026-05-04 22:45 | 55.08954 | -36.78761 | 37328 ft | 455 kts | 273° |
| 2026-05-04 22:46 | 55.08787 | -36.89824 | 37319 ft | 455 kts | 273° |
| 2026-05-04 22:46 | 55.08610 | -37.00869 | 37293 ft | 455 kts | 272° |
| 2026-05-04 22:47 | 55.08424 | -37.11909 | 37309 ft | 454 kts | 272° |
| 2026-05-04 22:47 | 55.08227 | -37.22921 | 37323 ft | 454 kts | 272° |
| 2026-05-04 22:48 | 55.08022 | -37.33860 | 37319 ft | 454 kts | 272° |
| 2026-05-04 22:48 | 55.07806 | -37.44864 | 37312 ft | 454 kts | 272° |
| 2026-05-04 22:49 | 55.07580 | -37.55883 | 37297 ft | 454 kts | 272° |
| 2026-05-04 22:49 | 55.07344 | -37.66883 | 37272 ft | 453 kts | 271° |
| 2026-05-04 22:50 | 55.07099 | -37.77787 | 37291 ft | 446 kts | 271° |
| 2026-05-04 22:50 | 55.06848 | -37.88568 | 37285 ft | 444 kts | 271° |
| 2026-05-04 22:51 | 55.06592 | -37.99256 | 37282 ft | 444 kts | 271° |
| 2026-05-04 22:51 | 55.06324 | -38.10014 | 37285 ft | 443 kts | 271° |
| 2026-05-04 22:52 | 55.06046 | -38.20765 | 37277 ft | 443 kts | 271° |
| 2026-05-04 22:52 | 55.05758 | -38.31506 | 37276 ft | 443 kts | 271° |
| 2026-05-04 22:53 | 55.05462 | -38.42261 | 37270 ft | 443 kts | 270° |
| 2026-05-04 22:53 | 55.05155 | -38.53018 | 37265 ft | 443 kts | 270° |
| 2026-05-04 22:54 | 55.04839 | -38.63766 | 37259 ft | 444 kts | 269° |
| 2026-05-04 22:54 | 55.04513 | -38.74531 | 37252 ft | 445 kts | 269° |
| 2026-05-04 22:55 | 55.04177 | -38.85302 | 37251 ft | 445 kts | 269° |
| 2026-05-04 22:55 | 55.03833 | -38.96003 | 37247 ft | 445 kts | 269° |
| 2026-05-04 22:56 | 55.03479 | -39.06778 | 37238 ft | 445 kts | 269° |
| 2026-05-04 22:56 | 55.03115 | -39.17553 | 37238 ft | 445 kts | 268° |
| 2026-05-04 22:57 | 55.02740 | -39.28333 | 37228 ft | 445 kts | 268° |
| 2026-05-04 22:57 | 55.02355 | -39.39118 | 37224 ft | 445 kts | 268° |
| 2026-05-04 22:58 | 55.01962 | -39.49879 | 37221 ft | 445 kts | 268° |
| 2026-05-04 22:58 | 55.01562 | -39.60571 | 37214 ft | 445 kts | 268° |
| 2026-05-04 22:59 | 55.01152 | -39.71331 | 37209 ft | 445 kts | 267° |
| 2026-05-04 22:59 | 55.00731 | -39.82081 | 37200 ft | 444 kts | 266° |
| 2026-05-04 23:00 | 55.00300 | -39.92807 | 37200 ft | 444 kts | 266° |
| 2026-05-04 23:00 | 54.99854 | -40.03521 | 37200 ft | 444 kts | 266° |
| 2026-05-04 23:01 | 54.99250 | -40.14227 | 37190 ft | 444 kts | 264° |
| 2026-05-04 23:01 | 54.98580 | -40.24912 | 37192 ft | 443 kts | 265° |
| 2026-05-04 23:02 | 54.97926 | -40.35584 | 37174 ft | 443 kts | 264° |
| 2026-05-04 23:02 | 54.97278 | -40.46269 | 37172 ft | 443 kts | 264° |
| 2026-05-04 23:03 | 54.96628 | -40.56898 | 37173 ft | 444 kts | 263° |
| 2026-05-04 23:03 | 54.95962 | -40.67601 | 37159 ft | 445 kts | 263° |
| 2026-05-04 23:04 | 54.95287 | -40.78302 | 37160 ft | 445 kts | 263° |
| 2026-05-04 23:04 | 54.94603 | -40.88990 | 37143 ft | 445 kts | 263° |
| 2026-05-04 23:05 | 54.93910 | -40.99691 | 37140 ft | 445 kts | 262° |
| 2026-05-04 23:05 | 54.93204 | -41.10420 | 37132 ft | 447 kts | 262° |
| 2026-05-04 23:06 | 54.92487 | -41.21155 | 37132 ft | 447 kts | 262° |
| 2026-05-04 23:06 | 54.91765 | -41.31837 | 37127 ft | 447 kts | 262° |
| 2026-05-04 23:07 | 54.91029 | -41.42580 | 37114 ft | 447 kts | 262° |
| 2026-05-04 23:07 | 54.90285 | -41.53310 | 37113 ft | 448 kts | 262° |
| 2026-05-04 23:08 | 54.89529 | -41.64080 | 37095 ft | 449 kts | 261° |
| 2026-05-04 23:08 | 54.88760 | -41.74871 | 37094 ft | 450 kts | 260° |
| 2026-05-04 23:09 | 54.87980 | -41.85672 | 37097 ft | 450 kts | 260° |
| 2026-05-04 23:09 | 54.87197 | -41.96392 | 37097 ft | 450 kts | 260° |
| 2026-05-04 23:10 | 54.86399 | -42.07170 | 37088 ft | 450 kts | 260° |
| 2026-05-04 23:10 | 54.85586 | -42.18029 | 37072 ft | 450 kts | 260° |
| 2026-05-04 23:11 | 54.84770 | -42.28798 | 37073 ft | 450 kts | 260° |
| 2026-05-04 23:11 | 54.83948 | -42.39514 | 37064 ft | 450 kts | 260° |
| 2026-05-04 23:12 | 54.83112 | -42.50283 | 37054 ft | 451 kts | 259° |
| 2026-05-04 23:12 | 54.82262 | -42.61098 | 37053 ft | 452 kts | 259° |
| 2026-05-04 23:13 | 54.81403 | -42.71907 | 37040 ft | 452 kts | 259° |
| 2026-05-04 23:13 | 54.80534 | -42.82721 | 37033 ft | 452 kts | 259° |
| 2026-05-04 23:14 | 54.79663 | -42.93456 | 37021 ft | 453 kts | 258° |
| 2026-05-04 23:14 | 54.78773 | -43.04276 | 37020 ft | 454 kts | 258° |
| 2026-05-04 23:15 | 54.77871 | -43.15113 | 37004 ft | 454 kts | 258° |
| 2026-05-04 23:15 | 54.76959 | -43.25947 | 36996 ft | 454 kts | 258° |
| 2026-05-04 23:16 | 54.76196 | -43.34936 | 36995 ft | 454 kts | 258° |
| 2026-05-04 23:16 | 54.75266 | -43.45770 | 36990 ft | 455 kts | 257° |
| 2026-05-04 23:17 | 54.74325 | -43.56617 | 36980 ft | 457 kts | 256° |
| 2026-05-04 23:17 | 54.73365 | -43.67551 | 36985 ft | 460 kts | 256° |
| 2026-05-04 23:18 | 54.72881 | -43.73026 | 37159 ft | 460 kts | 256° |
| 2026-05-04 23:18 | 54.72397 | -43.78490 | 37489 ft | 458 kts | 256° |
| 2026-05-04 23:18 | 54.71915 | -43.83914 | 37837 ft | 456 kts | 256° |
| 2026-05-04 23:18 | 54.71435 | -43.89272 | 37959 ft | 458 kts | 256° |
| 2026-05-04 23:19 | 54.70448 | -44.00163 | 37938 ft | 458 kts | 256° |
| 2026-05-04 23:19 | 54.69453 | -44.11045 | 37939 ft | 458 kts | 256° |
| 2026-05-04 23:20 | 54.68447 | -44.21932 | 37927 ft | 459 kts | 255° |
| 2026-05-04 23:20 | 54.67426 | -44.32859 | 37922 ft | 461 kts | 255° |
| 2026-05-04 23:21 | 54.66394 | -44.43816 | 37898 ft | 463 kts | 255° |
| 2026-05-04 23:21 | 54.65346 | -44.54815 | 37895 ft | 465 kts | 255° |
| 2026-05-04 23:22 | 54.64289 | -44.65816 | 37881 ft | 465 kts | 255° |
| 2026-05-04 23:22 | 54.63221 | -44.76824 | 37873 ft | 465 kts | 255° |
| 2026-05-04 23:23 | 54.62141 | -44.87834 | 37875 ft | 467 kts | 254° |
| 2026-05-04 23:23 | 54.61047 | -44.98862 | 37859 ft | 469 kts | 254° |
| 2026-05-04 23:24 | 54.59940 | -45.09949 | 37859 ft | 469 kts | 253° |
| 2026-05-04 23:24 | 54.58820 | -45.21048 | 37837 ft | 469 kts | 253° |
| 2026-05-04 23:25 | 54.57693 | -45.32109 | 37838 ft | 469 kts | 253° |
| 2026-05-04 23:25 | 54.56552 | -45.43199 | 37834 ft | 471 kts | 253° |
| 2026-05-04 23:26 | 54.55393 | -45.54320 | 37821 ft | 477 kts | 253° |
| 2026-05-04 23:26 | 54.54213 | -45.65577 | 37816 ft | 478 kts | 253° |
| 2026-05-04 23:27 | 54.53024 | -45.76831 | 37807 ft | 478 kts | 252° |
| 2026-05-04 23:27 | 54.51824 | -45.88079 | 37808 ft | 477 kts | 252° |
| 2026-05-04 23:28 | 54.50614 | -45.99302 | 37785 ft | 477 kts | 252° |
| 2026-05-04 23:28 | 54.49389 | -46.10551 | 37789 ft | 480 kts | 252° |
| 2026-05-04 23:29 | 54.48142 | -46.21875 | 37771 ft | 482 kts | 252° |
| 2026-05-04 23:29 | 54.46894 | -46.33151 | 37785 ft | 483 kts | 252° |
| 2026-05-04 23:30 | 54.45623 | -46.44523 | 37760 ft | 485 kts | 252° |
| 2026-05-04 23:30 | 54.44340 | -46.55904 | 37760 ft | 485 kts | 252° |
| 2026-05-04 23:31 | 54.43045 | -46.67280 | 37766 ft | 485 kts | 252° |
| 2026-05-04 23:31 | 54.41732 | -46.78704 | 37744 ft | 489 kts | 252° |
| 2026-05-04 23:32 | 54.40405 | -46.90157 | 37731 ft | 489 kts | 252° |
| 2026-05-04 23:32 | 54.39066 | -47.01622 | 37730 ft | 489 kts | 251° |
| 2026-05-04 23:33 | 54.37718 | -47.13062 | 37722 ft | 489 kts | 251° |
| 2026-05-04 23:33 | 54.36363 | -47.24452 | 37713 ft | 489 kts | 251° |
| 2026-05-04 23:34 | 54.34989 | -47.35897 | 37716 ft | 492 kts | 251° |
| 2026-05-04 23:34 | 54.33593 | -47.47425 | 37699 ft | 494 kts | 251° |
| 2026-05-04 23:35 | 54.32189 | -47.58946 | 37697 ft | 494 kts | 251° |
| 2026-05-04 23:35 | 54.30772 | -47.70471 | 37688 ft | 494 kts | 251° |
| 2026-05-04 23:36 | 54.29345 | -47.81974 | 37682 ft | 494 kts | 251° |
| 2026-05-04 23:36 | 54.27906 | -47.93467 | 37680 ft | 494 kts | 251° |
| 2026-05-04 23:37 | 54.26458 | -48.04927 | 37671 ft | 496 kts | 251° |
| 2026-05-04 23:37 | 54.24990 | -48.16471 | 37672 ft | 497 kts | 251° |
| 2026-05-04 23:38 | 54.23509 | -48.28028 | 37662 ft | 498 kts | 250° |
| 2026-05-04 23:38 | 54.22013 | -48.39595 | 37658 ft | 499 kts | 250° |
| 2026-05-04 23:39 | 54.20501 | -48.51192 | 37657 ft | 499 kts | 250° |
| 2026-05-04 23:39 | 54.18994 | -48.62667 | 37637 ft | 499 kts | 250° |
| 2026-05-04 23:40 | 54.17464 | -48.74217 | 37639 ft | 499 kts | 250° |
| 2026-05-04 23:40 | 54.15922 | -48.85763 | 37639 ft | 498 kts | 250° |
| 2026-05-04 23:41 | 54.14370 | -48.97298 | 37622 ft | 498 kts | 250° |
| 2026-05-04 23:41 | 54.12808 | -49.08809 | 37623 ft | 498 kts | 250° |
| 2026-05-04 23:42 | 54.11230 | -49.20349 | 37616 ft | 502 kts | 250° |
| 2026-05-04 23:42 | 54.09641 | -49.31870 | 37606 ft | 503 kts | 250° |
| 2026-05-04 23:43 | 54.08031 | -49.43483 | 37592 ft | 504 kts | 250° |
| 2026-05-04 23:43 | 54.06406 | -49.55109 | 37592 ft | 503 kts | 250° |
| 2026-05-04 23:44 | 54.04773 | -49.66692 | 37584 ft | 503 kts | 250° |
| 2026-05-04 23:44 | 54.03126 | -49.78293 | 37588 ft | 505 kts | 250° |
| 2026-05-04 23:45 | 54.01472 | -49.89836 | 37575 ft | 506 kts | 250° |
| 2026-05-04 23:45 | 53.99606 | -50.01324 | 37581 ft | 500 kts | 242° |
| 2026-05-04 23:46 | 53.97073 | -50.12321 | 37548 ft | 499 kts | 241° |
| 2026-05-04 23:46 | 53.94422 | -50.23222 | 37548 ft | 499 kts | 240° |
| 2026-05-04 23:47 | 53.91748 | -50.34109 | 37537 ft | 500 kts | 241° |
| 2026-05-04 23:47 | 53.89066 | -50.45025 | 37539 ft | 501 kts | 241° |
| 2026-05-04 23:48 | 53.86393 | -50.55890 | 37527 ft | 501 kts | 241° |
| 2026-05-04 23:48 | 53.83699 | -50.66790 | 37512 ft | 501 kts | 240° |
| 2026-05-04 23:49 | 53.80995 | -50.77673 | 37554 ft | 501 kts | 241° |
| 2026-05-04 23:49 | 53.78277 | -50.88557 | 37506 ft | 502 kts | 241° |
| 2026-05-04 23:50 | 53.75561 | -50.99378 | 37506 ft | 503 kts | 240° |
| 2026-05-04 23:50 | 53.72822 | -51.10239 | 37484 ft | 503 kts | 240° |
| 2026-05-04 23:51 | 53.70074 | -51.21081 | 37484 ft | 502 kts | 240° |
| 2026-05-04 23:51 | 53.67306 | -51.31950 | 37470 ft | 504 kts | 241° |
| 2026-05-04 23:52 | 53.64520 | -51.42831 | 37484 ft | 506 kts | 241° |
| 2026-05-04 23:52 | 53.61721 | -51.53718 | 37465 ft | 506 kts | 240° |
| 2026-05-04 23:53 | 53.58933 | -51.64511 | 37466 ft | 506 kts | 240° |
| 2026-05-04 23:53 | 53.56116 | -51.75364 | 37440 ft | 506 kts | 240° |
| 2026-05-04 23:54 | 53.53292 | -51.86187 | 37454 ft | 506 kts | 241° |
| 2026-05-04 23:54 | 53.50451 | -51.97023 | 37429 ft | 506 kts | 241° |
| 2026-05-04 23:55 | 53.47595 | -52.07864 | 37417 ft | 506 kts | 240° |
| 2026-05-04 23:56 | 53.43318 | -52.24008 | 37417 ft | 506 kts | 240° |
| 2026-05-04 23:56 | 53.40443 | -52.34796 | 37407 ft | 506 kts | 241° |
| 2026-05-04 23:57 | 53.37560 | -52.45562 | 37389 ft | 507 kts | 240° |
| 2026-05-04 23:57 | 53.34672 | -52.56290 | 37380 ft | 508 kts | 240° |
| 2026-05-04 23:58 | 53.31756 | -52.67076 | 37383 ft | 508 kts | 240° |
| 2026-05-04 23:58 | 53.28836 | -52.77827 | 37387 ft | 508 kts | 240° |
| 2026-05-04 23:59 | 53.25907 | -52.88566 | 37360 ft | 506 kts | 240° |
| 2026-05-04 23:59 | 53.22975 | -52.99261 | 37358 ft | 506 kts | 240° |
| 2026-05-05 00:00 | 53.20034 | -53.09937 | 37347 ft | 506 kts | 240° |
| 2026-05-05 00:00 | 53.17101 | -53.20538 | 37347 ft | 506 kts | 240° |
| 2026-05-05 00:01 | 53.14142 | -53.31182 | 37332 ft | 505 kts | 240° |
| 2026-05-05 00:01 | 53.11183 | -53.41781 | 37335 ft | 505 kts | 240° |
| 2026-05-05 00:02 | 53.08212 | -53.52370 | 37352 ft | 504 kts | 240° |
| 2026-05-05 00:02 | 53.05233 | -53.62941 | 37323 ft | 505 kts | 240° |
| 2026-05-05 00:03 | 53.02749 | -53.71722 | 37323 ft | 505 kts | 240° |
| 2026-05-05 00:03 | 52.99749 | -53.82280 | 37309 ft | 505 kts | 240° |
| 2026-05-05 00:04 | 52.96257 | -53.94513 | 37309 ft | 505 kts | 240° |
| 2026-05-05 00:04 | 52.93747 | -54.03265 | 37300 ft | 505 kts | 240° |
| 2026-05-05 00:05 | 52.90723 | -54.13767 | 37300 ft | 505 kts | 240° |
| 2026-05-05 00:05 | 52.87179 | -54.26017 | 37289 ft | 504 kts | 240° |
| 2026-05-05 00:06 | 52.84655 | -54.34703 | 37289 ft | 503 kts | 240° |
| 2026-05-05 00:06 | 52.81615 | -54.45118 | 37281 ft | 503 kts | 240° |
| 2026-05-05 00:07 | 52.78559 | -54.55545 | 37271 ft | 503 kts | 240° |
| 2026-05-05 00:07 | 52.75500 | -54.65934 | 37291 ft | 503 kts | 240° |
| 2026-05-05 00:08 | 52.72454 | -54.76235 | 37265 ft | 503 kts | 240° |
| 2026-05-05 00:08 | 52.69380 | -54.86588 | 37260 ft | 503 kts | 240° |
| 2026-05-05 00:09 | 52.66297 | -54.96928 | 37258 ft | 503 kts | 240° |
| 2026-05-05 00:09 | 52.63204 | -55.07252 | 37252 ft | 502 kts | 240° |
| 2026-05-05 00:10 | 52.60101 | -55.17571 | 37246 ft | 502 kts | 240° |
| 2026-05-05 00:10 | 52.57002 | -55.27830 | 37247 ft | 501 kts | 240° |
| 2026-05-05 00:11 | 52.53888 | -55.38090 | 37239 ft | 501 kts | 240° |
| 2026-05-05 00:11 | 52.50773 | -55.48312 | 37231 ft | 501 kts | 240° |
| 2026-05-05 00:12 | 52.47644 | -55.58536 | 37245 ft | 501 kts | 240° |
| 2026-05-05 00:12 | 52.44506 | -55.68746 | 37225 ft | 501 kts | 240° |
| 2026-05-05 00:13 | 52.41356 | -55.78952 | 37223 ft | 503 kts | 240° |
| 2026-05-05 00:13 | 52.38140 | -55.89117 | 37222 ft | 502 kts | 238° |
| 2026-05-05 00:14 | 52.34646 | -55.99007 | 37222 ft | 501 kts | 236° |
| 2026-05-05 00:14 | 52.31132 | -56.08753 | 37223 ft | 501 kts | 237° |
| 2026-05-05 00:15 | 52.27630 | -56.18582 | 37223 ft | 501 kts | 237° |
| 2026-05-05 00:15 | 52.24143 | -56.28421 | 37225 ft | 500 kts | 237° |
| 2026-05-05 00:16 | 52.20655 | -56.38244 | 37225 ft | 500 kts | 237° |
| 2026-05-05 00:16 | 52.17159 | -56.48050 | 37224 ft | 500 kts | 237° |
| 2026-05-05 00:17 | 52.13659 | -56.57825 | 37223 ft | 498 kts | 237° |
| 2026-05-05 00:17 | 52.10179 | -56.67501 | 37222 ft | 498 kts | 237° |
| 2026-05-05 00:18 | 52.06668 | -56.77225 | 37222 ft | 498 kts | 237° |
| 2026-05-05 00:18 | 52.03150 | -56.86931 | 37234 ft | 498 kts | 237° |
| 2026-05-05 00:19 | 51.99627 | -56.96618 | 37219 ft | 498 kts | 237° |
| 2026-05-05 00:19 | 51.96092 | -57.06297 | 37220 ft | 498 kts | 237° |
| 2026-05-05 00:20 | 51.92548 | -57.15968 | 37219 ft | 498 kts | 237° |
| 2026-05-05 00:20 | 51.89001 | -57.25607 | 37226 ft | 498 kts | 237° |
| 2026-05-05 00:21 | 51.85437 | -57.35255 | 37231 ft | 498 kts | 237° |
| 2026-05-05 00:21 | 51.81875 | -57.44862 | 37219 ft | 498 kts | 237° |
| 2026-05-05 00:22 | 51.78306 | -57.54453 | 37235 ft | 498 kts | 237° |
| 2026-05-05 00:22 | 51.74724 | -57.64042 | 37239 ft | 498 kts | 237° |
| 2026-05-05 00:23 | 51.71165 | -57.73532 | 37248 ft | 497 kts | 237° |
| 2026-05-05 00:23 | 51.67576 | -57.83069 | 37227 ft | 496 kts | 237° |
| 2026-05-05 00:24 | 51.63989 | -57.92565 | 37228 ft | 496 kts | 237° |
| 2026-05-05 00:24 | 51.60392 | -58.02050 | 37233 ft | 497 kts | 237° |
| 2026-05-05 00:25 | 51.56777 | -58.11547 | 37232 ft | 497 kts | 237° |
| 2026-05-05 00:25 | 51.53157 | -58.21027 | 37235 ft | 497 kts | 237° |
| 2026-05-05 00:26 | 51.49532 | -58.30479 | 37235 ft | 497 kts | 237° |
| 2026-05-05 00:26 | 51.45898 | -58.39922 | 37237 ft | 497 kts | 237° |
| 2026-05-05 00:27 | 51.42256 | -58.49351 | 37248 ft | 497 kts | 237° |
| 2026-05-05 00:27 | 51.38627 | -58.58713 | 37243 ft | 497 kts | 237° |
| 2026-05-05 00:28 | 51.34975 | -58.68098 | 37232 ft | 496 kts | 237° |
| 2026-05-05 00:28 | 51.31317 | -58.77467 | 37235 ft | 496 kts | 237° |
| 2026-05-05 00:29 | 51.27647 | -58.86832 | 37235 ft | 496 kts | 237° |
| 2026-05-05 00:29 | 51.23978 | -58.96158 | 37232 ft | 495 kts | 237° |
| 2026-05-05 00:30 | 51.20304 | -59.05466 | 37230 ft | 495 kts | 237° |
| 2026-05-05 00:30 | 51.16621 | -59.14762 | 37225 ft | 496 kts | 237° |
| 2026-05-05 00:31 | 51.12947 | -59.24000 | 37225 ft | 497 kts | 236° |
| 2026-05-05 00:31 | 51.09245 | -59.33275 | 37228 ft | 496 kts | 237° |
| 2026-05-05 00:32 | 51.05542 | -59.42524 | 37228 ft | 495 kts | 237° |
| 2026-05-05 00:32 | 51.01840 | -59.51737 | 37229 ft | 495 kts | 236° |
| 2026-05-05 00:33 | 50.98130 | -59.60935 | 37228 ft | 495 kts | 236° |
| 2026-05-05 00:33 | 50.94413 | -59.70118 | 37231 ft | 494 kts | 237° |
| 2026-05-05 00:34 | 50.90693 | -59.79277 | 37237 ft | 494 kts | 236° |
| 2026-05-05 00:34 | 50.86981 | -59.88381 | 37235 ft | 494 kts | 236° |
| 2026-05-05 00:35 | 50.83224 | -59.97566 | 37256 ft | 494 kts | 236° |
| 2026-05-05 00:35 | 50.79486 | -60.06672 | 37269 ft | 494 kts | 236° |
| 2026-05-05 00:36 | 50.75774 | -60.15682 | 37269 ft | 491 kts | 236° |
| 2026-05-05 00:36 | 50.72040 | -60.24717 | 37282 ft | 491 kts | 236° |
| 2026-05-05 00:37 | 50.68299 | -60.33737 | 37290 ft | 491 kts | 236° |
| 2026-05-05 00:37 | 50.64548 | -60.42749 | 37302 ft | 491 kts | 236° |
| 2026-05-05 00:38 | 50.60799 | -60.51725 | 37312 ft | 490 kts | 236° |
| 2026-05-05 00:38 | 50.57079 | -60.60600 | 37313 ft | 489 kts | 236° |
| 2026-05-05 00:39 | 50.53324 | -60.69529 | 37325 ft | 489 kts | 236° |
| 2026-05-05 00:39 | 50.49564 | -60.78442 | 37325 ft | 489 kts | 236° |
| 2026-05-05 00:40 | 50.45800 | -60.87330 | 37334 ft | 488 kts | 236° |
| 2026-05-05 00:40 | 50.42039 | -60.96183 | 37344 ft | 488 kts | 236° |
| 2026-05-05 00:41 | 50.38264 | -61.05040 | 37346 ft | 488 kts | 236° |
| 2026-05-05 00:41 | 50.34489 | -61.13868 | 37354 ft | 488 kts | 236° |
| 2026-05-05 00:42 | 50.30729 | -61.22629 | 37346 ft | 487 kts | 236° |
| 2026-05-05 00:42 | 50.26954 | -61.31398 | 37357 ft | 484 kts | 236° |
| 2026-05-05 00:43 | 50.23188 | -61.40114 | 37366 ft | 483 kts | 236° |
| 2026-05-05 00:43 | 50.19420 | -61.48809 | 37362 ft | 483 kts | 236° |
| 2026-05-05 00:44 | 50.15636 | -61.57508 | 37363 ft | 483 kts | 236° |
| 2026-05-05 00:44 | 50.11887 | -61.66101 | 37364 ft | 482 kts | 236° |
| 2026-05-05 00:45 | 50.08101 | -61.74750 | 37364 ft | 482 kts | 236° |
| 2026-05-05 00:45 | 50.04312 | -61.83379 | 37364 ft | 482 kts | 236° |
| 2026-05-05 00:46 | 50.00518 | -61.91991 | 37406 ft | 482 kts | 236° |
| 2026-05-05 00:46 | 49.96714 | -62.00597 | 37425 ft | 482 kts | 236° |
| 2026-05-05 00:47 | 49.92939 | -62.09110 | 37423 ft | 481 kts | 236° |
| 2026-05-05 00:47 | 49.89133 | -62.17666 | 37439 ft | 482 kts | 236° |
| 2026-05-05 00:48 | 49.85309 | -62.26233 | 37439 ft | 484 kts | 236° |
| 2026-05-05 00:48 | 49.82122 | -62.33350 | 37445 ft | 483 kts | 236° |
| 2026-05-05 00:49 | 49.78287 | -62.41890 | 37462 ft | 483 kts | 236° |
| 2026-05-05 00:49 | 49.73820 | -62.51806 | 37458 ft | 482 kts | 236° |
| 2026-05-05 00:50 | 49.70601 | -62.58931 | 37468 ft | 482 kts | 236° |
| 2026-05-05 00:50 | 49.66755 | -62.67414 | 37473 ft | 483 kts | 236° |
| 2026-05-05 00:51 | 49.62891 | -62.75913 | 37486 ft | 484 kts | 235° |
| 2026-05-05 00:51 | 49.59038 | -62.84360 | 37500 ft | 484 kts | 235° |
| 2026-05-05 00:52 | 49.55153 | -62.92847 | 37503 ft | 485 kts | 236° |
| 2026-05-05 00:52 | 49.51261 | -63.01322 | 37511 ft | 485 kts | 235° |
| 2026-05-05 00:53 | 49.47363 | -63.09786 | 37512 ft | 483 kts | 235° |
| 2026-05-05 00:53 | 49.43469 | -63.18211 | 37530 ft | 484 kts | 235° |
| 2026-05-05 00:54 | 49.39555 | -63.26654 | 37537 ft | 485 kts | 235° |
| 2026-05-05 00:54 | 49.35634 | -63.35087 | 37536 ft | 484 kts | 235° |
| 2026-05-05 00:55 | 49.31729 | -63.43456 | 37542 ft | 480 kts | 235° |
| 2026-05-05 00:55 | 49.27869 | -63.51707 | 37545 ft | 480 kts | 235° |
| 2026-05-05 00:56 | 49.23964 | -63.60030 | 37548 ft | 480 kts | 235° |
| 2026-05-05 00:56 | 49.20053 | -63.68335 | 37550 ft | 481 kts | 235° |
| 2026-05-05 00:57 | 49.16137 | -63.76630 | 37556 ft | 481 kts | 235° |
| 2026-05-05 00:57 | 49.12231 | -63.84875 | 37566 ft | 481 kts | 235° |
| 2026-05-05 00:58 | 49.08306 | -63.93132 | 37563 ft | 481 kts | 235° |
| 2026-05-05 00:58 | 49.04372 | -64.01384 | 37565 ft | 480 kts | 234° |
| 2026-05-05 00:59 | 49.00424 | -64.09643 | 37573 ft | 484 kts | 235° |
| 2026-05-05 00:59 | 48.96451 | -64.17925 | 37569 ft | 485 kts | 234° |
| 2026-05-05 01:00 | 48.92466 | -64.26208 | 37559 ft | 485 kts | 234° |
| 2026-05-05 01:00 | 48.88473 | -64.34481 | 37555 ft | 485 kts | 234° |
| 2026-05-05 01:01 | 48.84473 | -64.42746 | 37559 ft | 485 kts | 234° |
| 2026-05-05 01:01 | 48.80493 | -64.50941 | 37558 ft | 485 kts | 234° |
| 2026-05-05 01:02 | 48.76489 | -64.59163 | 37563 ft | 485 kts | 234° |
| 2026-05-05 01:02 | 48.72477 | -64.67377 | 37559 ft | 485 kts | 234° |
| 2026-05-05 01:03 | 48.68455 | -64.75584 | 37596 ft | 485 kts | 234° |
| 2026-05-05 01:03 | 48.64424 | -64.83785 | 37596 ft | 486 kts | 234° |
| 2026-05-05 01:04 | 48.60386 | -64.91976 | 37610 ft | 486 kts | 234° |
| 2026-05-05 01:04 | 48.54312 | -65.04248 | 37629 ft | 486 kts | 234° |
| 2026-05-05 01:05 | 48.50280 | -65.12363 | 37626 ft | 486 kts | 234° |
| 2026-05-05 01:05 | 48.46214 | -65.20525 | 37634 ft | 486 kts | 234° |
| 2026-05-05 01:06 | 48.42149 | -65.28660 | 37619 ft | 486 kts | 234° |
| 2026-05-05 01:06 | 48.38063 | -65.36811 | 37611 ft | 486 kts | 234° |
| 2026-05-05 01:07 | 48.33984 | -65.44922 | 37620 ft | 486 kts | 234° |
| 2026-05-05 01:07 | 48.29893 | -65.53035 | 37629 ft | 486 kts | 234° |
| 2026-05-05 01:08 | 48.25826 | -65.61076 | 37637 ft | 486 kts | 234° |
| 2026-05-05 01:08 | 48.21731 | -65.69148 | 37650 ft | 486 kts | 234° |
| 2026-05-05 01:09 | 48.17628 | -65.77212 | 37677 ft | 486 kts | 234° |
| 2026-05-05 01:09 | 48.13528 | -65.85244 | 37658 ft | 485 kts | 234° |
| 2026-05-05 01:10 | 48.09412 | -65.93285 | 37678 ft | 486 kts | 234° |
| 2026-05-05 01:10 | 48.05293 | -66.01307 | 37682 ft | 486 kts | 234° |
| 2026-05-05 01:11 | 48.01176 | -66.09304 | 37686 ft | 485 kts | 234° |
| 2026-05-05 01:11 | 47.97081 | -66.17235 | 37676 ft | 485 kts | 234° |
| 2026-05-05 01:12 | 47.92953 | -66.25205 | 37675 ft | 485 kts | 234° |
| 2026-05-05 01:12 | 47.88825 | -66.33152 | 37670 ft | 484 kts | 234° |
| 2026-05-05 01:13 | 47.84694 | -66.41082 | 37678 ft | 484 kts | 234° |
| 2026-05-05 01:13 | 47.80560 | -66.48994 | 37678 ft | 484 kts | 234° |
| 2026-05-05 01:14 | 47.76422 | -66.56891 | 37686 ft | 484 kts | 234° |
| 2026-05-05 01:14 | 47.72279 | -66.64776 | 37691 ft | 483 kts | 234° |
| 2026-05-05 01:15 | 47.68139 | -66.72633 | 37695 ft | 483 kts | 234° |
| 2026-05-05 01:15 | 47.64014 | -66.80438 | 37701 ft | 483 kts | 234° |
| 2026-05-05 01:16 | 47.59861 | -66.88271 | 37702 ft | 484 kts | 234° |
| 2026-05-05 01:16 | 47.55677 | -66.96140 | 37711 ft | 482 kts | 234° |
| 2026-05-05 01:17 | 47.51524 | -67.03931 | 37720 ft | 482 kts | 234° |
| 2026-05-05 01:17 | 47.47389 | -67.11666 | 37719 ft | 482 kts | 234° |
| 2026-05-05 01:18 | 47.43226 | -67.19432 | 37701 ft | 482 kts | 234° |
| 2026-05-05 01:18 | 47.39077 | -67.27189 | 37719 ft | 480 kts | 237° |
| 2026-05-05 01:19 | 47.35793 | -67.35688 | 37732 ft | 475 kts | 248° |
| 2026-05-05 01:19 | 47.33132 | -67.44536 | 37735 ft | 474 kts | 249° |
| 2026-05-05 01:20 | 47.30542 | -67.53479 | 37735 ft | 475 kts | 249° |
| 2026-05-05 01:20 | 47.27935 | -67.62416 | 37731 ft | 474 kts | 249° |
| 2026-05-05 01:21 | 47.25310 | -67.71319 | 37738 ft | 474 kts | 249° |
| 2026-05-05 01:21 | 47.22671 | -67.80210 | 37741 ft | 474 kts | 249° |
| 2026-05-05 01:22 | 47.20023 | -67.89097 | 37741 ft | 474 kts | 249° |
| 2026-05-05 01:22 | 47.17374 | -67.97960 | 37745 ft | 474 kts | 249° |
| 2026-05-05 01:23 | 47.14718 | -68.06812 | 37738 ft | 473 kts | 249° |
| 2026-05-05 01:23 | 47.12075 | -68.15592 | 37747 ft | 472 kts | 249° |
| 2026-05-05 01:24 | 47.09411 | -68.24412 | 37762 ft | 472 kts | 249° |
| 2026-05-05 01:24 | 47.06740 | -68.33224 | 37749 ft | 472 kts | 249° |
| 2026-05-05 01:25 | 47.04065 | -68.42017 | 37743 ft | 472 kts | 249° |
| 2026-05-05 01:25 | 47.01381 | -68.50805 | 37740 ft | 472 kts | 249° |
| 2026-05-05 01:26 | 46.98692 | -68.59581 | 37746 ft | 471 kts | 249° |
| 2026-05-05 01:26 | 46.96003 | -68.68328 | 37744 ft | 471 kts | 249° |
| 2026-05-05 01:27 | 46.93320 | -68.77025 | 37740 ft | 471 kts | 249° |
| 2026-05-05 01:27 | 46.90615 | -68.85765 | 37752 ft | 471 kts | 249° |
| 2026-05-05 01:28 | 46.87904 | -68.94492 | 37752 ft | 471 kts | 249° |
| 2026-05-05 01:28 | 46.85186 | -69.03211 | 37757 ft | 471 kts | 249° |
| 2026-05-05 01:29 | 46.82459 | -69.11928 | 37758 ft | 471 kts | 248° |
| 2026-05-05 01:29 | 46.79730 | -69.20625 | 37781 ft | 471 kts | 248° |
| 2026-05-05 01:30 | 46.77009 | -69.29263 | 37774 ft | 471 kts | 248° |
| 2026-05-05 01:30 | 46.74266 | -69.37941 | 37774 ft | 471 kts | 248° |
| 2026-05-05 01:31 | 46.71519 | -69.46602 | 37780 ft | 470 kts | 248° |
| 2026-05-05 01:31 | 46.68771 | -69.55242 | 37790 ft | 470 kts | 248° |
| 2026-05-05 01:32 | 46.66010 | -69.63890 | 37788 ft | 470 kts | 248° |
| 2026-05-05 01:32 | 46.63246 | -69.72517 | 37786 ft | 470 kts | 248° |
| 2026-05-05 01:33 | 46.60478 | -69.81129 | 37777 ft | 469 kts | 248° |
| 2026-05-05 01:33 | 46.57712 | -69.89706 | 37777 ft | 468 kts | 248° |
| 2026-05-05 01:34 | 46.55409 | -69.96824 | 37775 ft | 468 kts | 248° |
| 2026-05-05 01:34 | 46.52184 | -70.06764 | 37783 ft | 468 kts | 248° |
| 2026-05-05 01:35 | 46.49396 | -70.15322 | 37780 ft | 468 kts | 248° |
| 2026-05-05 01:35 | 46.47077 | -70.22420 | 37780 ft | 468 kts | 248° |
| 2026-05-05 01:36 | 46.44288 | -70.30930 | 37783 ft | 467 kts | 248° |
| 2026-05-05 01:36 | 46.41493 | -70.39431 | 37785 ft | 466 kts | 248° |
| 2026-05-05 01:37 | 46.38699 | -70.47904 | 37782 ft | 466 kts | 248° |
| 2026-05-05 01:37 | 46.35898 | -70.56369 | 37782 ft | 466 kts | 248° |
| 2026-05-05 01:38 | 46.33095 | -70.64812 | 37778 ft | 465 kts | 248° |
| 2026-05-05 01:38 | 46.30291 | -70.73228 | 37785 ft | 464 kts | 248° |
| 2026-05-05 01:39 | 46.27483 | -70.81632 | 37780 ft | 464 kts | 247° |
| 2026-05-05 01:39 | 46.24667 | -70.90035 | 37784 ft | 464 kts | 247° |
| 2026-05-05 01:40 | 46.21872 | -70.98343 | 37780 ft | 462 kts | 247° |
| 2026-05-05 01:40 | 46.19061 | -71.06674 | 37776 ft | 460 kts | 247° |
| 2026-05-05 01:41 | 46.16254 | -71.14968 | 37779 ft | 459 kts | 247° |
| 2026-05-05 01:41 | 46.13439 | -71.23262 | 37781 ft | 459 kts | 247° |
| 2026-05-05 01:42 | 46.10623 | -71.31533 | 37775 ft | 459 kts | 247° |
| 2026-05-05 01:42 | 46.07821 | -71.39734 | 37781 ft | 459 kts | 247° |
| 2026-05-05 01:43 | 46.04993 | -71.47985 | 37771 ft | 459 kts | 247° |
| 2026-05-05 01:43 | 46.02160 | -71.56228 | 37774 ft | 459 kts | 247° |
| 2026-05-05 01:44 | 45.99314 | -71.64481 | 37770 ft | 459 kts | 247° |
| 2026-05-05 01:44 | 45.96465 | -71.72717 | 37758 ft | 459 kts | 247° |
| 2026-05-05 01:45 | 45.93632 | -71.80881 | 37761 ft | 459 kts | 247° |
| 2026-05-05 01:45 | 45.90774 | -71.89092 | 37743 ft | 460 kts | 246° |
| 2026-05-05 01:46 | 45.87904 | -71.97312 | 37745 ft | 460 kts | 246° |
| 2026-05-05 01:46 | 45.85027 | -72.05526 | 37743 ft | 460 kts | 246° |
| 2026-05-05 01:47 | 45.82147 | -72.13726 | 37734 ft | 460 kts | 246° |
| 2026-05-05 01:47 | 45.79260 | -72.21918 | 37731 ft | 460 kts | 246° |
| 2026-05-05 01:48 | 45.76371 | -72.30091 | 37728 ft | 460 kts | 246° |
| 2026-05-05 01:48 | 45.73476 | -72.38259 | 37723 ft | 459 kts | 246° |
| 2026-05-05 01:49 | 45.70598 | -72.46351 | 37721 ft | 459 kts | 246° |
| 2026-05-05 01:49 | 45.67695 | -72.54491 | 37722 ft | 459 kts | 246° |
| 2026-05-05 01:50 | 45.64792 | -72.62603 | 37720 ft | 458 kts | 246° |
| 2026-05-05 01:50 | 45.62229 | -72.70877 | 37721 ft | 453 kts | 256° |
| 2026-05-05 01:51 | 45.61136 | -72.79664 | 37717 ft | 449 kts | 266° |
| 2026-05-05 01:51 | 45.60635 | -72.88562 | 37718 ft | 449 kts | 268° |
| 2026-05-05 01:52 | 45.60206 | -72.97448 | 37715 ft | 449 kts | 268° |
| 2026-05-05 01:52 | 45.59754 | -73.06330 | 37710 ft | 448 kts | 267° |
| 2026-05-05 01:53 | 45.59276 | -73.15203 | 37712 ft | 448 kts | 267° |
| 2026-05-05 01:53 | 45.58787 | -73.24024 | 37712 ft | 448 kts | 267° |
| 2026-05-05 01:54 | 45.58288 | -73.32883 | 37709 ft | 448 kts | 267° |
| 2026-05-05 01:54 | 45.57783 | -73.41755 | 37712 ft | 448 kts | 266° |
| 2026-05-05 01:55 | 45.57273 | -73.50609 | 37710 ft | 447 kts | 266° |
| 2026-05-05 01:55 | 45.56756 | -73.59466 | 37711 ft | 447 kts | 266° |
| 2026-05-05 01:56 | 45.56232 | -73.68309 | 37697 ft | 447 kts | 266° |
| 2026-05-05 01:56 | 45.55701 | -73.77156 | 37699 ft | 447 kts | 266° |
| 2026-05-05 01:57 | 45.55167 | -73.85937 | 37698 ft | 447 kts | 266° |
| 2026-05-05 01:57 | 45.54623 | -73.94780 | 37699 ft | 447 kts | 266° |
| 2026-05-05 01:58 | 45.54072 | -74.03619 | 37698 ft | 447 kts | 266° |
| 2026-05-05 01:58 | 45.53514 | -74.12454 | 37692 ft | 447 kts | 266° |
| 2026-05-05 01:59 | 45.52953 | -74.21230 | 37692 ft | 447 kts | 266° |
| 2026-05-05 01:59 | 45.52382 | -74.30061 | 37687 ft | 446 kts | 266° |
| 2026-05-05 02:00 | 45.51805 | -74.38871 | 37689 ft | 446 kts | 266° |
| 2026-05-05 02:00 | 45.51087 | -74.47658 | 37681 ft | 447 kts | 261° |
| 2026-05-05 02:01 | 45.49945 | -74.56349 | 37682 ft | 445 kts | 261° |
| 2026-05-05 02:01 | 45.48732 | -74.65020 | 37669 ft | 445 kts | 260° |
| 2026-05-05 02:02 | 45.47518 | -74.73593 | 37676 ft | 443 kts | 260° |
| 2026-05-05 02:02 | 45.46299 | -74.82194 | 37663 ft | 442 kts | 260° |
| 2026-05-05 02:03 | 45.45080 | -74.90783 | 37662 ft | 442 kts | 260° |
| 2026-05-05 02:03 | 45.43857 | -74.99357 | 37658 ft | 442 kts | 260° |
| 2026-05-05 02:04 | 45.42628 | -75.07934 | 37658 ft | 442 kts | 260° |
| 2026-05-05 02:04 | 45.41381 | -75.16501 | 37655 ft | 440 kts | 260° |
| 2026-05-05 02:05 | 45.40137 | -75.25001 | 37646 ft | 438 kts | 260° |
| 2026-05-05 02:05 | 45.38893 | -75.33470 | 37654 ft | 437 kts | 260° |
| 2026-05-05 02:06 | 45.37654 | -75.41868 | 37657 ft | 436 kts | 260° |
| 2026-05-05 02:06 | 45.36400 | -75.50318 | 37660 ft | 436 kts | 259° |
| 2026-05-05 02:07 | 45.35142 | -75.58750 | 37658 ft | 435 kts | 259° |
| 2026-05-05 02:07 | 45.33880 | -75.67162 | 37658 ft | 434 kts | 259° |
| 2026-05-05 02:08 | 45.32615 | -75.75553 | 37655 ft | 434 kts | 259° |
| 2026-05-05 02:08 | 45.31341 | -75.83957 | 37650 ft | 434 kts | 259° |
| 2026-05-05 02:09 | 45.30063 | -75.92347 | 37649 ft | 434 kts | 259° |
| 2026-05-05 02:09 | 45.28780 | -76.00722 | 37649 ft | 433 kts | 259° |
| 2026-05-05 02:10 | 45.27495 | -76.09064 | 37638 ft | 432 kts | 259° |
| 2026-05-05 02:10 | 45.26212 | -76.17350 | 37635 ft | 432 kts | 259° |
| 2026-05-05 02:11 | 45.24137 | -76.25343 | 37657 ft | 437 kts | 240° |
| 2026-05-05 02:11 | 45.20282 | -76.32084 | 37642 ft | 442 kts | 233° |
| 2026-05-05 02:12 | 45.14229 | -76.41979 | 37648 ft | 442 kts | 233° |
| 2026-05-05 02:13 | 45.10214 | -76.48557 | 37655 ft | 440 kts | 233° |
| 2026-05-05 02:13 | 45.06243 | -76.55057 | 37656 ft | 439 kts | 233° |
| 2026-05-05 02:14 | 45.02249 | -76.61581 | 37657 ft | 439 kts | 233° |
| 2026-05-05 02:14 | 44.98252 | -76.68094 | 37655 ft | 439 kts | 233° |
| 2026-05-05 02:15 | 44.94245 | -76.74612 | 37664 ft | 439 kts | 233° |
| 2026-05-05 02:15 | 44.90234 | -76.81118 | 37667 ft | 439 kts | 233° |
| 2026-05-05 02:15 | 44.88235 | -76.84355 | 37506 ft | 438 kts | 233° |
| 2026-05-05 02:16 | 44.86236 | -76.87587 | 37240 ft | 436 kts | 233° |
| 2026-05-05 02:16 | 44.84247 | -76.90801 | 36987 ft | 436 kts | 233° |
| 2026-05-05 02:16 | 44.82254 | -76.94042 | 36671 ft | 435 kts | 234° |
| 2026-05-05 02:16 | 44.80475 | -76.97470 | 36401 ft | 432 kts | 242° |
| 2026-05-05 02:17 | 44.78954 | -77.01121 | 36139 ft | 431 kts | 244° |
| 2026-05-05 02:17 | 44.77499 | -77.04747 | 35878 ft | 431 kts | 244° |
| 2026-05-05 02:17 | 44.76021 | -77.08423 | 35612 ft | 431 kts | 244° |
| 2026-05-05 02:17 | 44.74539 | -77.12097 | 35369 ft | 431 kts | 244° |
| 2026-05-05 02:18 | 44.73058 | -77.15757 | 35128 ft | 429 kts | 244° |
| 2026-05-05 02:18 | 44.71578 | -77.19407 | 34773 ft | 425 kts | 244° |
| 2026-05-05 02:18 | 44.70124 | -77.22981 | 34346 ft | 418 kts | 244° |
| 2026-05-05 02:18 | 44.68691 | -77.26502 | 33878 ft | 413 kts | 245° |
| 2026-05-05 02:19 | 44.67268 | -77.29996 | 33362 ft | 409 kts | 245° |
| 2026-05-05 02:19 | 44.65863 | -77.33445 | 32876 ft | 404 kts | 245° |
| 2026-05-05 02:19 | 44.64474 | -77.36849 | 32405 ft | 398 kts | 244° |
| 2026-05-05 02:19 | 44.63104 | -77.40201 | 31947 ft | 393 kts | 244° |
| 2026-05-05 02:20 | 44.61754 | -77.43502 | 31502 ft | 388 kts | 244° |
| 2026-05-05 02:20 | 44.60417 | -77.46766 | 31055 ft | 383 kts | 244° |
| 2026-05-05 02:20 | 44.59095 | -77.49989 | 30606 ft | 378 kts | 244° |
| 2026-05-05 02:20 | 44.57794 | -77.53158 | 30176 ft | 373 kts | 244° |
| 2026-05-05 02:21 | 44.56519 | -77.56261 | 29754 ft | 369 kts | 243° |
| 2026-05-05 02:21 | 44.55244 | -77.59357 | 29290 ft | 364 kts | 243° |
| 2026-05-05 02:21 | 44.53990 | -77.62400 | 28849 ft | 358 kts | 243° |
| 2026-05-05 02:21 | 44.52753 | -77.65399 | 28424 ft | 353 kts | 243° |
| 2026-05-05 02:22 | 44.51528 | -77.68369 | 28000 ft | 351 kts | 243° |
| 2026-05-05 02:22 | 44.50309 | -77.71331 | 27590 ft | 350 kts | 243° |
| 2026-05-05 02:22 | 44.49089 | -77.74273 | 27188 ft | 348 kts | 243° |
| 2026-05-05 02:22 | 44.47873 | -77.77199 | 26757 ft | 346 kts | 243° |
| 2026-05-05 02:23 | 44.47056 | -77.79165 | 26474 ft | 345 kts | 243° |
| 2026-05-05 02:23 | 44.45465 | -77.82992 | 25939 ft | 342 kts | 243° |
| 2026-05-05 02:23 | 44.44273 | -77.85857 | 25521 ft | 339 kts | 243° |
| 2026-05-05 02:23 | 44.43089 | -77.88701 | 25109 ft | 337 kts | 243° |
| 2026-05-05 02:24 | 44.42307 | -77.90576 | 24832 ft | 336 kts | 243° |
| 2026-05-05 02:24 | 44.41133 | -77.93393 | 24400 ft | 334 kts | 243° |
| 2026-05-05 02:24 | 44.39967 | -77.96185 | 23991 ft | 331 kts | 243° |
| 2026-05-05 02:24 | 44.38810 | -77.98954 | 23578 ft | 328 kts | 243° |
| 2026-05-05 02:25 | 44.37662 | -78.01699 | 23147 ft | 326 kts | 243° |
| 2026-05-05 02:25 | 44.36520 | -78.04428 | 22672 ft | 324 kts | 243° |
| 2026-05-05 02:25 | 44.35386 | -78.07135 | 22271 ft | 322 kts | 243° |
| 2026-05-05 02:25 | 44.34261 | -78.09829 | 21875 ft | 320 kts | 243° |
| 2026-05-05 02:26 | 44.33134 | -78.12507 | 21456 ft | 318 kts | 242° |
| 2026-05-05 02:26 | 44.32013 | -78.15168 | 21051 ft | 316 kts | 242° |
| 2026-05-05 02:26 | 44.30917 | -78.17767 | 20648 ft | 315 kts | 242° |
| 2026-05-05 02:26 | 44.29808 | -78.20394 | 20238 ft | 313 kts | 242° |
| 2026-05-05 02:27 | 44.28705 | -78.23009 | 19833 ft | 311 kts | 242° |
| 2026-05-05 02:27 | 44.27608 | -78.25607 | 19421 ft | 309 kts | 242° |
| 2026-05-05 02:27 | 44.26519 | -78.28182 | 19034 ft | 308 kts | 242° |
| 2026-05-05 02:27 | 44.25434 | -78.30745 | 18612 ft | 306 kts | 242° |
| 2026-05-05 02:28 | 44.24358 | -78.33288 | 18221 ft | 304 kts | 241° |
| 2026-05-05 02:28 | 44.23284 | -78.35822 | 17799 ft | 302 kts | 241° |
| 2026-05-05 02:28 | 44.22216 | -78.38338 | 17374 ft | 301 kts | 241° |
| 2026-05-05 02:28 | 44.21152 | -78.40843 | 16974 ft | 300 kts | 241° |
| 2026-05-05 02:29 | 44.20092 | -78.43337 | 16578 ft | 299 kts | 241° |
| 2026-05-05 02:29 | 44.19035 | -78.45821 | 16179 ft | 298 kts | 241° |
| 2026-05-05 02:29 | 44.17979 | -78.48302 | 15859 ft | 301 kts | 242° |
| 2026-05-05 02:29 | 44.16894 | -78.50854 | 15653 ft | 305 kts | 241° |
| 2026-05-05 02:30 | 44.15817 | -78.53375 | 15332 ft | 300 kts | 241° |
| 2026-05-05 02:30 | 44.14757 | -78.55856 | 14929 ft | 297 kts | 241° |
| 2026-05-05 02:30 | 44.13707 | -78.58314 | 14534 ft | 294 kts | 242° |
| 2026-05-05 02:30 | 44.12667 | -78.60746 | 14141 ft | 292 kts | 242° |
| 2026-05-05 02:31 | 44.11641 | -78.63142 | 13748 ft | 291 kts | 242° |
| 2026-05-05 02:31 | 44.10607 | -78.65558 | 13339 ft | 291 kts | 242° |
| 2026-05-05 02:31 | 44.09574 | -78.67971 | 12946 ft | 289 kts | 241° |
| 2026-05-05 02:31 | 44.08547 | -78.70365 | 12548 ft | 287 kts | 241° |
| 2026-05-05 02:32 | 44.07530 | -78.72735 | 12148 ft | 285 kts | 241° |
| 2026-05-05 02:32 | 44.06516 | -78.75095 | 11761 ft | 283 kts | 241° |
| 2026-05-05 02:32 | 44.05512 | -78.77432 | 11371 ft | 281 kts | 241° |
| 2026-05-05 02:32 | 44.04501 | -78.79738 | 10991 ft | 279 kts | 238° |
| 2026-05-05 02:33 | 44.03304 | -78.81852 | 10621 ft | 278 kts | 231° |
| 2026-05-05 02:33 | 44.02004 | -78.83822 | 10311 ft | 273 kts | 230° |
| 2026-05-05 02:33 | 44.00736 | -78.85710 | 10170 ft | 260 kts | 230° |
| 2026-05-05 02:33 | 43.99534 | -78.87503 | 10038 ft | 248 kts | 230° |
| 2026-05-05 02:34 | 43.98391 | -78.89213 | 9916 ft | 246 kts | 230° |
| 2026-05-05 02:34 | 43.97206 | -78.90995 | 9826 ft | 255 kts | 230° |
| 2026-05-05 02:34 | 43.95987 | -78.92825 | 9663 ft | 254 kts | 230° |
| 2026-05-05 02:34 | 43.94788 | -78.94620 | 9157 ft | 254 kts | 229° |
| 2026-05-05 02:35 | 43.93608 | -78.96386 | 8762 ft | 252 kts | 229° |
| 2026-05-05 02:35 | 43.92418 | -78.98165 | 8430 ft | 250 kts | 229° |
| 2026-05-05 02:35 | 43.91237 | -78.99932 | 8119 ft | 248 kts | 229° |
| 2026-05-05 02:35 | 43.90060 | -79.01691 | 7798 ft | 248 kts | 229° |
| 2026-05-05 02:36 | 43.88889 | -79.03439 | 7479 ft | 247 kts | 229° |
| 2026-05-05 02:36 | 43.87788 | -79.05256 | 7250 ft | 244 kts | 236° |
| 2026-05-05 02:36 | 43.86937 | -79.07304 | 7247 ft | 245 kts | 246° |
| 2026-05-05 02:36 | 43.86513 | -79.09581 | 7239 ft | 247 kts | 265° |
| 2026-05-05 02:37 | 43.86642 | -79.11920 | 7121 ft | 247 kts | 268° |
| 2026-05-05 02:37 | 43.86692 | -79.14306 | 6909 ft | 248 kts | 268° |
| 2026-05-05 02:37 | 43.86774 | -79.16697 | 6656 ft | 249 kts | 269° |
| 2026-05-05 02:37 | 43.86886 | -79.19087 | 6397 ft | 248 kts | 270° |
| 2026-05-05 02:38 | 43.87012 | -79.21461 | 6145 ft | 247 kts | 270° |
| 2026-05-05 02:38 | 43.87146 | -79.23840 | 5883 ft | 246 kts | 270° |
| 2026-05-05 02:38 | 43.87283 | -79.26207 | 5618 ft | 246 kts | 270° |
| 2026-05-05 02:38 | 43.87391 | -79.28567 | 5354 ft | 243 kts | 265° |
| 2026-05-05 02:39 | 43.87115 | -79.30830 | 5100 ft | 237 kts | 247° |
| 2026-05-05 02:39 | 43.86260 | -79.32744 | 4789 ft | 234 kts | 230° |
| 2026-05-05 02:39 | 43.85163 | -79.34411 | 4492 ft | 234 kts | 227° |
| 2026-05-05 02:39 | 43.84052 | -79.36039 | 4193 ft | 232 kts | 227° |
| 2026-05-05 02:40 | 43.82955 | -79.37654 | 3901 ft | 228 kts | 227° |
| 2026-05-05 02:40 | 43.81882 | -79.39246 | 3608 ft | 225 kts | 227° |
| 2026-05-05 02:40 | 43.80823 | -79.40822 | 3351 ft | 223 kts | 227° |
| 2026-05-05 02:40 | 43.79784 | -79.42372 | 3091 ft | 221 kts | 227° |
| 2026-05-05 02:41 | 43.78748 | -79.43921 | 3007 ft | 218 kts | 227° |
| 2026-05-05 02:41 | 43.77923 | -79.45723 | 3027 ft | 222 kts | 240° |
| 2026-05-05 02:41 | 43.77057 | -79.47391 | 2837 ft | 210 kts | 225° |
| 2026-05-05 02:41 | 43.75966 | -79.48608 | 2567 ft | 193 kts | 217° |
| 2026-05-05 02:42 | 43.74925 | -79.49682 | 2266 ft | 180 kts | 220° |
| 2026-05-05 02:42 | 43.74037 | -79.50779 | 2048 ft | 159 kts | 226° |
| 2026-05-05 02:42 | 43.73354 | -79.51839 | 2101 ft | 138 kts | 229° |
| 2026-05-05 02:42 | 43.72756 | -79.52776 | 1927 ft | 123 kts | 228° |
| 2026-05-05 02:43 | 43.72179 | -79.53592 | 1673 ft | 114 kts | 222° |
| 2026-05-05 02:43 | 43.71641 | -79.54372 | 1548 ft | 113 kts | 227° |
| 2026-05-05 02:43 | 43.71097 | -79.55174 | 1416 ft | 116 kts | 223° |
| 2026-05-05 02:43 | 43.70527 | -79.55978 | 1291 ft | 120 kts | 223° |
| 2026-05-05 02:44 | 43.69917 | -79.56812 | 1137 ft | 125 kts | 224° |
| 2026-05-05 02:44 | 43.69314 | -79.57706 | 1003 ft | 128 kts | 224° |
| 2026-05-05 02:44 | 43.68687 | -79.58602 | 831 ft | 133 kts | 226° |
| 2026-05-05 02:44 | 43.68039 | -79.59551 | 665 ft | 137 kts | 224° |
| 2026-05-05 02:45 | 43.67378 | -79.60492 | 578 ft | 133 kts | 224° |
| 2026-05-05 02:45 | 43.66809 | -79.61312 | 578 ft | 101 kts | 227° |
| 2026-05-05 02:45 | 43.66496 | -79.61770 | 573 ft | 42 kts | 226° |
| 2026-05-05 02:45 | 43.66307 | -79.62045 | 578 ft | 39 kts | 226° |
| 2026-05-05 02:46 | 43.66161 | -79.62287 | 577 ft | 3 kts | 274° |
| 2026-05-05 02:46 | 43.66169 | -79.62299 | 575 ft | 3 kts | 311° |
| 2026-05-05 02:46 | 43.66219 | -79.62356 | 576 ft | 19 kts | 320° |
| 2026-05-05 02:46 | 43.66309 | -79.62436 | 570 ft | 4 kts | 9° |
| 2026-05-05 02:47 | 43.66346 | -79.62412 | 573 ft | 9 kts | 34° |
| 2026-05-05 02:47 | 43.66414 | -79.62328 | 575 ft | 19 kts | 43° |
| 2026-05-05 02:47 | 43.66528 | -79.62186 | 578 ft | 23 kts | 42° |
| 2026-05-05 02:47 | 43.66653 | -79.62028 | 577 ft | 25 kts | 43° |
| 2026-05-05 02:48 | 43.66786 | -79.61860 | 578 ft | 27 kts | 43° |
| 2026-05-05 02:48 | 43.66875 | -79.61746 | 579 ft | 11 kts | 42° |
| 2026-05-05 02:48 | 43.66947 | -79.61656 | 578 ft | 16 kts | 42° |
| 2026-05-05 02:48 | 43.67039 | -79.61540 | 581 ft | 19 kts | 42° |
| 2026-05-05 02:49 | 43.67142 | -79.61409 | 581 ft | 23 kts | 42° |
| 2026-05-05 02:49 | 43.67258 | -79.61346 | 575 ft | 15 kts | 345° |
| 2026-05-05 02:49 | 43.67367 | -79.61327 | 573 ft | 16 kts | 21° |
| 2026-05-05 02:49 | 43.67477 | -79.61279 | 572 ft | 9 kts | 351° |
| 2026-05-05 02:50 | 43.67496 | -79.61317 | 575 ft | 6 kts | 293° |
| 2026-05-05 02:50 | 43.67536 | -79.61412 | 572 ft | 18 kts | 306° |
| 2026-05-05 02:50 | 43.67648 | -79.61568 | 574 ft | 25 kts | 315° |
| 2026-05-05 02:50 | 43.67700 | -79.61643 | 575 ft | 1 kts | 313° |
| 2026-05-05 02:51 | 43.67724 | -79.61676 | 571 ft | 7 kts | 324° |
| 2026-05-05 02:51 | 43.67755 | -79.61697 | 572 ft | 4 kts | 314° |
| 2026-05-05 02:51 | 43.67795 | -79.61768 | 573 ft | 17 kts | 309° |
| 2026-05-05 02:51 | 43.67891 | -79.61882 | 575 ft | 20 kts | 330° |
| 2026-05-05 02:52 | 43.68016 | -79.61973 | 576 ft | 16 kts | 343° |
| 2026-05-05 02:52 | 43.68111 | -79.61968 | 573 ft | 10 kts | 355° |
| 2026-05-05 02:52 | 43.68163 | -79.61980 | 576 ft | 0 kts | 350° |
| 2026-05-05 02:52 | 43.68169 | -79.61981 | 573 ft | 1 kts | 349° |
| 2026-05-05 02:53 | 43.68172 | -79.61982 | 573 ft | 0 kts | 350° |